Observation data for Dell City 1N on 10/29/2020      Previous  Date       Current Mesonet Observations  Soil Data  Daily Summary Page  Observations in Plain Language
KDC1 290500Z 09004KT 02/01 A3022 RMK A01 T00230005  RH  088%=      5-min Rain = 0
KDC1 290501Z 10006KT 02/01 A3022 RMK A01 T00220005  RH  088%=      5-min Rain = 0
KDC1 290502Z 09004KT 02/01 A3022 RMK A01 T00220005  RH  089%=      5-min Rain = 0
KDC1 290503Z 10004KT 02/01 A3022 RMK A01 T00220007  RH  089%=      5-min Rain = 0
KDC1 290504Z 09003KT 02/01 A3022 RMK A01 T00220007  RH  089%=      5-min Rain = 0
KDC1 290505Z 10003KT 02/01 A3022 RMK A01 T00220006  RH  089%=      5-min Rain = 0
KDC1 290506Z 10003KT 02/01 A3022 RMK A01 T00220005  RH  089%=      5-min Rain = 0
KDC1 290507Z 10004KT 02/00 A3022 RMK A01 T00210004  RH  089%=      5-min Rain = 0
KDC1 290508Z 10003KT 02/00 A3022 RMK A01 T00210004  RH  089%=      5-min Rain = 0
KDC1 290509Z 10003KT 02/00 A3022 RMK A01 T00200004  RH  089%=      5-min Rain = 0
KDC1 290510Z 09002KT 02/00 A3022 RMK A01 T00190004  RH  089%=      5-min Rain = 0
KDC1 290511Z 08003KT 02/00 A3022 RMK A01 T00190004  RH  090%=      5-min Rain = 0
KDC1 290512Z 09003KT 02/00 A3022 RMK A01 T00190004  RH  090%=      5-min Rain = 0
KDC1 290513Z 09003KT 02/00 A3022 RMK A01 T00180003  RH  090%=      5-min Rain = 0
KDC1 290514Z 09003KT 02/00 A3022 RMK A01 T00180003  RH  090%=      5-min Rain = 0
KDC1 290515Z 09003KT 02/00 A3022 RMK A01 T00180004  RH  090%=      5-min Rain = 0
KDC1 290516Z 08003KT 02/00 A3022 RMK A01 T00180004  RH  090%=      5-min Rain = 0
KDC1 290517Z 09002KT 02/00 A3023 RMK A01 T00180004  RH  090%=      5-min Rain = 0
KDC1 290518Z 09002KT 02/00 A3022 RMK A01 T00180004  RH  090%=      5-min Rain = 0
KDC1 290519Z 10002KT 02/00 A3022 RMK A01 T00170002  RH  090%=      5-min Rain = 0
KDC1 290520Z 11002KT 02/00 A3022 RMK A01 T00160002  RH  090%=      5-min Rain = 0
KDC1 290521Z 10001KT 02/00 A3022 RMK A01 T00160002  RH  090%=      5-min Rain = 0
KDC1 290522Z 08002KT 02/00 A3023 RMK A01 T00160003  RH  091%=      5-min Rain = 0
KDC1 290523Z 08001KT 02/00 A3023 RMK A01 T00170003  RH  091%=      5-min Rain = 0
KDC1 290524Z 08001KT 02/00 A3022 RMK A01 T00170004  RH  091%=      5-min Rain = 0
KDC1 290525Z 08000KT 02/00 A3022 RMK A01 T00170004  RH  091%=      5-min Rain = 0
KDC1 290526Z 00000KT 02/00 A3022 RMK A01 T00170003  RH  091%=      5-min Rain = 0
KDC1 290527Z 08000KT 02/00 A3022 RMK A01 T00170003  RH  091%=      5-min Rain = 0
KDC1 290528Z 08000KT 02/00 A3022 RMK A01 T00170004  RH  091%=      5-min Rain = 0
KDC1 290529Z 00000KT 02/00 A3022 RMK A01 T00180004  RH  091%=      5-min Rain = 0
KDC1 290530Z 00000KT 02/01 A3022 RMK A01 T00190006  RH  091%=      5-min Rain = 0
KDC1 290531Z 08000KT 02/01 A3022 RMK A01 T00200006  RH  091%=      5-min Rain = 0
KDC1 290532Z 08000KT 02/01 A3022 RMK A01 T00200006  RH  090%=      5-min Rain = 0
KDC1 290533Z 08000KT 02/01 A3022 RMK A01 T00200006  RH  090%=      5-min Rain = 0
KDC1 290534Z 00000KT 02/00 A3022 RMK A01 T00190003  RH  089%=      5-min Rain = 0
KDC1 290535Z 08000KT 02/M00 A3022 RMK A01 T00151002  RH  089%=      5-min Rain = 0
KDC1 290536Z 11002KT 01/M00 A3022 RMK A01 T00131003  RH  089%=      5-min Rain = 0
KDC1 290537Z 12003KT 01/00 A3022 RMK A01 T00130000  RH  091%=      5-min Rain = 0
KDC1 290538Z 12002KT 02/00 A3022 RMK A01 T00160004  RH  092%=      5-min Rain = 0
KDC1 290539Z 12002KT 02/01 A3022 RMK A01 T00170006  RH  092%=      5-min Rain = 0
KDC1 290540Z 12001KT 02/00 A3023 RMK A01 T00170004  RH  091%=      5-min Rain = 0
KDC1 290541Z 12000KT 02/00 A3023 RMK A01 T00150001  RH  090%=      5-min Rain = 0
KDC1 290542Z 12000KT 01/00 A3023 RMK A01 T00140001  RH  091%=      5-min Rain = 0
KDC1 290543Z 12000KT 01/00 A3023 RMK A01 T00140001  RH  091%=      5-min Rain = 0
KDC1 290544Z 00000KT 01/00 A3023 RMK A01 T00140002  RH  091%=      5-min Rain = 0
KDC1 290545Z 00000KT 01/00 A3023 RMK A01 T00140002  RH  091%=      5-min Rain = 0
KDC1 290546Z 16001KT 01/00 A3023 RMK A01 T00140002  RH  091%=      5-min Rain = 0
KDC1 290547Z 16002KT 01/00 A3023 RMK A01 T00140002  RH  091%=      5-min Rain = 0
KDC1 290548Z 15002KT 02/00 A3023 RMK A01 T00150003  RH  092%=      5-min Rain = 0
KDC1 290549Z 13002KT 02/00 A3023 RMK A01 T00160004  RH  092%=      5-min Rain = 0
KDC1 290550Z 13002KT 02/01 A3023 RMK A01 T00170005  RH  092%=      5-min Rain = 0
KDC1 290551Z 13002KT 02/00 A3023 RMK A01 T00160004  RH  092%=      5-min Rain = 0
KDC1 290552Z 13001KT 02/00 A3023 RMK A01 T00160003  RH  091%=      5-min Rain = 0
KDC1 290553Z 13001KT 01/00 A3023 RMK A01 T00140001  RH  091%=      5-min Rain = 0
KDC1 290554Z 12001KT 01/M00 A3023 RMK A01 T00131001  RH  091%=      5-min Rain = 0
KDC1 290555Z 12001KT 01/M00 A3023 RMK A01 T00111003  RH  091%=      5-min Rain = 0
KDC1 290556Z 09001KT 01/M00 A3023 RMK A01 T00101003  RH  091%=      5-min Rain = 0
KDC1 290557Z 10002KT 01/M00 A3023 RMK A01 T00101002  RH  092%=      5-min Rain = 0
KDC1 290558Z 10002KT 01/M00 A3023 RMK A01 T00101001  RH  092%=      5-min Rain = 0
KDC1 290559Z 11003KT 01/00 A3023 RMK A01 T00120001  RH  093%=      5-min Rain = 0
KDC1 290600Z 11002KT 01/00 A3023 RMK A01 T00130002  RH  093%=      5-min Rain = 0
KDC1 290601Z 12002KT 01/00 A3023 RMK A01 T00130003  RH  093%=      5-min Rain = 0
KDC1 290602Z 12002KT 02/01 A3023 RMK A01 T00150006  RH  093%=      5-min Rain = 0
KDC1 290603Z 09002KT 02/01 A3024 RMK A01 T00170007  RH  093%=      5-min Rain = 0
KDC1 290604Z 08002KT 02/01 A3024 RMK A01 T00170006  RH  092%=      5-min Rain = 0
KDC1 290605Z 10002KT 02/00 A3024 RMK A01 T00150003  RH  091%=      5-min Rain = 0
KDC1 290606Z 13002KT 01/00 A3024 RMK A01 T00140000  RH  091%=      5-min Rain = 0
KDC1 290607Z 12002KT 01/00 A3024 RMK A01 T00140001  RH  091%=      5-min Rain = 0
KDC1 290608Z 10002KT 01/00 A3024 RMK A01 T00140002  RH  091%=      5-min Rain = 0
KDC1 290609Z 09003KT 02/00 A3024 RMK A01 T00150002  RH  092%=      5-min Rain = 0
KDC1 290610Z 09003KT 02/00 A3024 RMK A01 T00150003  RH  091%=      5-min Rain = 0
KDC1 290611Z 09003KT 02/00 A3024 RMK A01 T00150002  RH  091%=      5-min Rain = 0
KDC1 290612Z 09001KT 01/00 A3024 RMK A01 T00140001  RH  091%=      5-min Rain = 0
KDC1 290613Z 09001KT 01/M00 A3024 RMK A01 T00131002  RH  090%=      5-min Rain = 0
KDC1 290614Z 09000KT 01/M00 A3024 RMK A01 T00111002  RH  091%=      5-min Rain = 0
KDC1 290615Z 00000KT 01/M00 A3024 RMK A01 T00121001  RH  091%=      5-min Rain = 0
KDC1 290616Z 00000KT 01/00 A3024 RMK A01 T001200-0  RH  091%=      5-min Rain = 0
KDC1 290617Z 18001KT 01/M00 A3023 RMK A01 T00111002  RH  091%=      5-min Rain = 0
KDC1 290618Z 18002KT 01/M00 A3023 RMK A01 T00111003  RH  091%=      5-min Rain = 0
KDC1 290619Z 18002KT 01/M00 A3023 RMK A01 T00111002  RH  091%=      5-min Rain = 0
KDC1 290620Z 19001KT 01/M00 A3023 RMK A01 T00111002  RH  091%=      5-min Rain = 0
KDC1 290621Z 20001KT 01/M00 A3023 RMK A01 T00111002  RH  092%=      5-min Rain = 0
KDC1 290622Z 20001KT 01/M00 A3023 RMK A01 T00101002  RH  092%=      5-min Rain = 0
KDC1 290623Z 21001KT 01/M00 A3023 RMK A01 T00091002  RH  092%=      5-min Rain = 0
KDC1 290624Z 20001KT 01/M00 A3023 RMK A01 T00091002  RH  093%=      5-min Rain = 0
KDC1 290625Z 19001KT 01/M00 A3023 RMK A01 T00091001  RH  093%=      5-min Rain = 0
KDC1 290626Z 19001KT 01/M00 A3023 RMK A01 T00101001  RH  093%=      5-min Rain = 0
KDC1 290627Z 21001KT 01/M00 A3023 RMK A01 T00101001  RH  093%=      5-min Rain = 0
KDC1 290628Z 22001KT 01/M00 A3023 RMK A01 T00101001  RH  093%=      5-min Rain = 0
KDC1 290629Z 22001KT 01/00 A3023 RMK A01 T001000-0  RH  093%=      5-min Rain = 0
KDC1 290630Z 22001KT 01/M00 A3023 RMK A01 T00091002  RH  092%=      5-min Rain = 0
KDC1 290631Z 24001KT 01/M01 A3023 RMK A01 T00071005  RH  092%=      5-min Rain = 0
KDC1 290632Z 25002KT 01/M01 A3023 RMK A01 T00071005  RH  092%=      5-min Rain = 0
KDC1 290633Z 25002KT 01/M00 A3023 RMK A01 T00071004  RH  092%=      5-min Rain = 0
KDC1 290634Z 25002KT 01/M01 A3023 RMK A01 T00051007  RH  092%=      5-min Rain = 0
KDC1 290635Z 25002KT 00/M01 A3023 RMK A01 T00021010  RH  092%=      5-min Rain = 0
KDC1 290636Z 25001KT 00/M01 A3023 RMK A01 T00011011  RH  092%=      5-min Rain = 0
KDC1 290637Z 26002KT 00/01 A3023 RMK A01 T00000-11  RH  092%=      5-min Rain = 0
KDC1 290638Z 26003KT M00/M01 A3023 RMK A01 T10011011  RH  093%=      5-min Rain = 0
KDC1 290639Z 25004KT M00/M01 A3023 RMK A01 T10021012  RH  093%=      5-min Rain = 0
KDC1 290640Z 24004KT M00/M01 A3022 RMK A01 T10011010  RH  094%=      5-min Rain = 0
KDC1 290641Z 24004KT 00/M00 A3023 RMK A01 T00031004  RH  095%=      5-min Rain = 0
KDC1 290642Z 26003KT 01/M00 A3023 RMK A01 T00051002  RH  095%=      5-min Rain = 0
KDC1 290643Z 26003KT 00/M00 A3023 RMK A01 T00041003  RH  095%=      5-min Rain = 0
KDC1 290644Z 25003KT 00/M01 A3022 RMK A01 T00031006  RH  094%=      5-min Rain = 0
KDC1 290645Z 25004KT 00/M01 A3022 RMK A01 T00021007  RH  094%=      5-min Rain = 0
KDC1 290646Z 26003KT 00/M01 A3023 RMK A01 T00021006  RH  094%=      5-min Rain = 0
KDC1 290647Z 27004KT 00/M01 A3023 RMK A01 T00021007  RH  094%=      5-min Rain = 0
KDC1 290648Z 27004KT 00/01 A3023 RMK A01 T000000-9  RH  094%=      5-min Rain = 0
KDC1 290649Z 28005KT M00/M01 A3023 RMK A01 T10011010  RH  093%=      5-min Rain = 0
KDC1 290650Z 29004KT M00/M01 A3023 RMK A01 T10021011  RH  094%=      5-min Rain = 0
KDC1 290651Z 30003KT M00/M01 A3023 RMK A01 T10021011  RH  094%=      5-min Rain = 0
KDC1 290652Z 31003KT M00/M01 A3023 RMK A01 T10031011  RH  094%=      5-min Rain = 0
KDC1 290653Z 33002KT M00/M01 A3023 RMK A01 T10031010  RH  094%=      5-min Rain = 0
KDC1 290654Z 33003KT M00/M01 A3023 RMK A01 T10021009  RH  095%=      5-min Rain = 0
KDC1 290655Z 33003KT M00/M01 A3023 RMK A01 T10021009  RH  095%=      5-min Rain = 0
KDC1 290656Z 33003KT M00/M01 A3023 RMK A01 T10011008  RH  095%=      5-min Rain = 0
KDC1 290657Z 32004KT M00/M01 A3023 RMK A01 T10011007  RH  095%=      5-min Rain = 0
KDC1 290658Z 33005KT M00/M01 A3023 RMK A01 T10011007  RH  095%=      5-min Rain = 0
KDC1 290659Z 33005KT M00/M01 A3023 RMK A01 T10011007  RH  096%=      5-min Rain = 0
KDC1 290700Z 32005KT M00/M01 A3023 RMK A01 T10011007  RH  096%=      5-min Rain = 0
KDC1 290701Z 31005KT 00/M01 A3023 RMK A01 T00011005  RH  096%=      5-min Rain = 0
KDC1 290702Z 30004KT 00/M00 A3023 RMK A01 T00011004  RH  096%=      5-min Rain = 0
KDC1 290703Z 30004KT 00/M01 A3023 RMK A01 T00011005  RH  096%=      5-min Rain = 0
KDC1 290704Z 31003KT 00/01 A3023 RMK A01 T00-000-7  RH  095%=      5-min Rain = 0
KDC1 290705Z 33003KT M00/M01 A3023 RMK A01 T10011008  RH  095%=      5-min Rain = 0
KDC1 290706Z 33003KT M00/M01 A3023 RMK A01 T10021009  RH  095%=      5-min Rain = 0
KDC1 290707Z 33003KT M00/M01 A3023 RMK A01 T10021009  RH  095%=      5-min Rain = 0
KDC1 290708Z 33004KT M00/M01 A3023 RMK A01 T10031009  RH  095%=      5-min Rain = 0
KDC1 290709Z 34004KT M00/M01 A3024 RMK A01 T10031009  RH  096%=      5-min Rain = 0
KDC1 290710Z 34004KT M00/M01 A3024 RMK A01 T10031010  RH  096%=      5-min Rain = 0
KDC1 290711Z 33004KT M00/M01 A3024 RMK A01 T10041010  RH  096%=      5-min Rain = 0
KDC1 290712Z 33003KT M01/M01 A3024 RMK A01 T10051011  RH  096%=      5-min Rain = 0
KDC1 290713Z 34003KT M01/M01 A3024 RMK A01 T10051011  RH  096%=      5-min Rain = 0
KDC1 290714Z 35003KT M01/M01 A3024 RMK A01 T10051011  RH  096%=      5-min Rain = 0
KDC1 290715Z 35003KT M01/M01 A3023 RMK A01 T10051011  RH  096%=      5-min Rain = 0
KDC1 290716Z 34003KT M00/M01 A3023 RMK A01 T10041010  RH  096%=      5-min Rain = 0
KDC1 290717Z 34004KT M00/M01 A3024 RMK A01 T10041009  RH  096%=      5-min Rain = 0
KDC1 290718Z 34004KT M00/M01 A3024 RMK A01 T10031008  RH  096%=      5-min Rain = 0
KDC1 290719Z 33004KT M00/M01 A3024 RMK A01 T10031008  RH  096%=      5-min Rain = 0
KDC1 290720Z 33003KT M00/M01 A3024 RMK A01 T10031008  RH  096%=      5-min Rain = 0
KDC1 290721Z 33003KT M00/M01 A3024 RMK A01 T10041010  RH  096%=      5-min Rain = 0
KDC1 290722Z 32002KT M00/M01 A3024 RMK A01 T10041009  RH  096%=      5-min Rain = 0
KDC1 290723Z 32002KT M00/M01 A3024 RMK A01 T10031008  RH  097%=      5-min Rain = 0
KDC1 290724Z 32004KT M00/M01 A3024 RMK A01 T10021007  RH  097%=      5-min Rain = 0
KDC1 290725Z 33004KT M00/M01 A3024 RMK A01 T10031008  RH  097%=      5-min Rain = 0
KDC1 290726Z 33004KT M00/M01 A3024 RMK A01 T10041009  RH  096%=      5-min Rain = 0
KDC1 290727Z 33004KT M00/M01 A3024 RMK A01 T10031008  RH  097%=      5-min Rain = 0
KDC1 290728Z 33005KT M00/M01 A3024 RMK A01 T10011005  RH  097%=      5-min Rain = 0
KDC1 290729Z 33005KT 00/M00 A3024 RMK A01 T00011004  RH  097%=      5-min Rain = 0
KDC1 290730Z 34005KT 00/M00 A3024 RMK A01 T00021003  RH  097%=      5-min Rain = 0
KDC1 290731Z 35005KT 00/M00 A3024 RMK A01 T00021002  RH  097%=      5-min Rain = 0
KDC1 290732Z 35005KT 00/M00 A3024 RMK A01 T00031001  RH  097%=      5-min Rain = 0
KDC1 290733Z 34005KT 01/00 A3024 RMK A01 T00050001  RH  097%=      5-min Rain = 0
KDC1 290734Z 34004KT 01/00 A3024 RMK A01 T00070002  RH  097%=      5-min Rain = 0
KDC1 290735Z 33004KT 01/00 A3024 RMK A01 T00080003  RH  097%=      5-min Rain = 0
KDC1 290736Z 32004KT 01/00 A3024 RMK A01 T00070001  RH  096%=      5-min Rain = 0
KDC1 290737Z 32004KT 00/M00 A3024 RMK A01 T00041004  RH  094%=      5-min Rain = 0
KDC1 290738Z 30004KT 00/M01 A3024 RMK A01 T00021006  RH  094%=      5-min Rain = 0
KDC1 290739Z 29004KT 00/M00 A3024 RMK A01 T00031004  RH  095%=      5-min Rain = 0
KDC1 290740Z 28005KT 01/M00 A3024 RMK A01 T00051002  RH  095%=      5-min Rain = 0
KDC1 290741Z 29004KT 01/M00 A3024 RMK A01 T00061001  RH  095%=      5-min Rain = 0
KDC1 290742Z 30003KT 01/M00 A3024 RMK A01 T00061001  RH  095%=      5-min Rain = 0
KDC1 290743Z 31004KT 01/00 A3024 RMK A01 T000700-0  RH  095%=      5-min Rain = 0
KDC1 290744Z 31004KT 01/00 A3024 RMK A01 T00080000  RH  095%=      5-min Rain = 0
KDC1 290745Z 30004KT 01/00 A3024 RMK A01 T00080001  RH  095%=      5-min Rain = 0
KDC1 290746Z 30004KT 01/00 A3024 RMK A01 T00090001  RH  095%=      5-min Rain = 0
KDC1 290747Z 30005KT 01/00 A3024 RMK A01 T00090001  RH  094%=      5-min Rain = 0
KDC1 290748Z 29005KT 01/00 A3024 RMK A01 T00090001  RH  094%=      5-min Rain = 0
KDC1 290749Z 29005KT 01/00 A3024 RMK A01 T00090000  RH  094%=      5-min Rain = 0
KDC1 290750Z 29005KT 01/M00 A3024 RMK A01 T00091001  RH  093%=      5-min Rain = 0
KDC1 290751Z 29005KT 01/M00 A3024 RMK A01 T00091001  RH  093%=      5-min Rain = 0
KDC1 290752Z 30005KT 01/M00 A3024 RMK A01 T00091001  RH  093%=      5-min Rain = 0
KDC1 290753Z 30005KT 01/M00 A3024 RMK A01 T00091001  RH  093%=      5-min Rain = 0
KDC1 290754Z 30005KT 01/M00 A3024 RMK A01 T00081002  RH  093%=      5-min Rain = 0
KDC1 290755Z 30006KT 01/M00 A3024 RMK A01 T00081002  RH  093%=      5-min Rain = 0
KDC1 290756Z 29005KT 01/M00 A3024 RMK A01 T00071003  RH  093%=      5-min Rain = 0
KDC1 290757Z 29005KT 01/M01 A3024 RMK A01 T00061005  RH  093%=      5-min Rain = 0
KDC1 290758Z 30005KT 01/M01 A3024 RMK A01 T00051006  RH  093%=      5-min Rain = 0
KDC1 290759Z 30005KT 01/M01 A3025 RMK A01 T00051005  RH  093%=      5-min Rain = 0
KDC1 290800Z 29005KT 00/M01 A3025 RMK A01 T00041006  RH  093%=      5-min Rain = 0
KDC1 290801Z 30005KT 00/M01 A3025 RMK A01 T00031008  RH  093%=      5-min Rain = 0
KDC1 290802Z 30005KT 00/M01 A3024 RMK A01 T00021008  RH  093%=      5-min Rain = 0
KDC1 290803Z 29006KT 00/M01 A3025 RMK A01 T00021007  RH  093%=      5-min Rain = 0
KDC1 290804Z 29006KT 00/M01 A3025 RMK A01 T00021007  RH  094%=      5-min Rain = 0
KDC1 290805Z 30005KT 00/M01 A3025 RMK A01 T00011009  RH  093%=      5-min Rain = 0
KDC1 290806Z 30004KT 00/01 A3025 RMK A01 T000000-9  RH  093%=      5-min Rain = 0
KDC1 290807Z 29004KT 00/01 A3025 RMK A01 T000000-8  RH  094%=      5-min Rain = 0
KDC1 290808Z 27005KT 00/M01 A3025 RMK A01 T00011007  RH  094%=      5-min Rain = 0
KDC1 290809Z 26005KT 00/M01 A3025 RMK A01 T00021006  RH  095%=      5-min Rain = 0
KDC1 290810Z 25006KT 00/M00 A3025 RMK A01 T00031004  RH  095%=      5-min Rain = 0
KDC1 290811Z 24006KT 00/M00 A3025 RMK A01 T00041004  RH  095%=      5-min Rain = 0
KDC1 290812Z 24006KT 00/M00 A3025 RMK A01 T00041004  RH  094%=      5-min Rain = 0
KDC1 290813Z 25006KT 00/M00 A3025 RMK A01 T00041004  RH  095%=      5-min Rain = 0
KDC1 290814Z 25007KT 00/M00 A3025 RMK A01 T00041004  RH  095%=      5-min Rain = 0
KDC1 290815Z 25006KT 00/M00 A3025 RMK A01 T00041003  RH  095%=      5-min Rain = 0
KDC1 290816Z 25007KT 01/M00 A3025 RMK A01 T00051003  RH  095%=      5-min Rain = 0
KDC1 290817Z 24006KT 01/M00 A3025 RMK A01 T00051003  RH  094%=      5-min Rain = 0
KDC1 290818Z 24006KT 01/M00 A3025 RMK A01 T00051003  RH  094%=      5-min Rain = 0
KDC1 290819Z 25007KT 01/M00 A3025 RMK A01 T00051004  RH  094%=      5-min Rain = 0
KDC1 290820Z 25008KT 01/M00 A3025 RMK A01 T00051004  RH  094%=      5-min Rain = 0
KDC1 290821Z 25007KT 00/M01 A3025 RMK A01 T00041005  RH  094%=      5-min Rain = 0
KDC1 290822Z 25007KT 00/M01 A3025 RMK A01 T00041005  RH  094%=      5-min Rain = 0
KDC1 290823Z 24006KT 00/M00 A3026 RMK A01 T00041004  RH  094%=      5-min Rain = 0
KDC1 290824Z 25006KT 00/M00 A3026 RMK A01 T00041004  RH  094%=      5-min Rain = 0
KDC1 290825Z 26005KT 00/M01 A3026 RMK A01 T00041005  RH  094%=      5-min Rain = 0
KDC1 290826Z 26005KT 00/M00 A3026 RMK A01 T00041004  RH  094%=      5-min Rain = 0
KDC1 290827Z 26005KT 01/M00 A3026 RMK A01 T00051003  RH  094%=      5-min Rain = 0
KDC1 290828Z 26005KT 01/M00 A3025 RMK A01 T00051003  RH  094%=      5-min Rain = 0
KDC1 290829Z 26005KT 01/M00 A3025 RMK A01 T00061003  RH  094%=      5-min Rain = 0
KDC1 290830Z 26005KT 01/M00 A3026 RMK A01 T00061003  RH  094%=      5-min Rain = 0
KDC1 290831Z 26005KT 01/M00 A3026 RMK A01 T00061003  RH  094%=      5-min Rain = 0
KDC1 290832Z 26005KT 01/M00 A3026 RMK A01 T00051003  RH  094%=      5-min Rain = 0
KDC1 290833Z 25005KT 01/M00 A3026 RMK A01 T00051004  RH  094%=      5-min Rain = 0
KDC1 290834Z 24005KT 00/M00 A3026 RMK A01 T00041004  RH  094%=      5-min Rain = 0
KDC1 290835Z 25006KT 00/M00 A3026 RMK A01 T00041004  RH  094%=      5-min Rain = 0
KDC1 290836Z 26007KT 00/M00 A3026 RMK A01 T00041004  RH  094%=      5-min Rain = 0
KDC1 290837Z 26007KT 01/M00 A3026 RMK A01 T00051003  RH  095%=      5-min Rain = 0
KDC1 290838Z 27006KT 01/M00 A3026 RMK A01 T00051003  RH  095%=      5-min Rain = 0
KDC1 290839Z 27005KT 01/M00 A3026 RMK A01 T00051003  RH  094%=      5-min Rain = 0
KDC1 290840Z 27006KT 01/M00 A3026 RMK A01 T00051004  RH  094%=      5-min Rain = 0
KDC1 290841Z 28006KT 00/M01 A3026 RMK A01 T00041005  RH  094%=      5-min Rain = 0
KDC1 290842Z 28006KT 00/M01 A3026 RMK A01 T00031006  RH  094%=      5-min Rain = 0
KDC1 290843Z 28006KT 00/M01 A3026 RMK A01 T00021007  RH  094%=      5-min Rain = 0
KDC1 290844Z 28006KT 00/01 A3026 RMK A01 T000000-9  RH  094%=      5-min Rain = 0
KDC1 290845Z 28005KT M00/M01 A3026 RMK A01 T10011009  RH  094%=      5-min Rain = 0
KDC1 290846Z 29005KT M00/M01 A3026 RMK A01 T10011009  RH  094%=      5-min Rain = 0
KDC1 290847Z 28005KT M00/M01 A3027 RMK A01 T10011009  RH  095%=      5-min Rain = 0
KDC1 290848Z 27005KT M00/M01 A3027 RMK A01 T10011009  RH  095%=      5-min Rain = 0
KDC1 290849Z 27005KT M00/M01 A3027 RMK A01 T10011008  RH  095%=      5-min Rain = 0
KDC1 290850Z 26005KT 00/01 A3027 RMK A01 T000000-6  RH  095%=      5-min Rain = 0
KDC1 290851Z 26005KT 00/M00 A3027 RMK A01 T00021004  RH  096%=      5-min Rain = 0
KDC1 290852Z 26005KT 00/M00 A3027 RMK A01 T00031003  RH  096%=      5-min Rain = 0
KDC1 290853Z 26004KT 00/M00 A3027 RMK A01 T00031003  RH  095%=      5-min Rain = 0
KDC1 290854Z 27005KT 00/M00 A3027 RMK A01 T00031003  RH  095%=      5-min Rain = 0
KDC1 290855Z 26004KT 00/M00 A3027 RMK A01 T00041003  RH  095%=      5-min Rain = 0
KDC1 290856Z 26004KT 00/M00 A3027 RMK A01 T00041002  RH  095%=      5-min Rain = 0
KDC1 290857Z 26004KT 01/M00 A3027 RMK A01 T00051002  RH  095%=      5-min Rain = 0
KDC1 290858Z 26004KT 01/M00 A3027 RMK A01 T00061001  RH  095%=      5-min Rain = 0
KDC1 290859Z 27005KT 01/00 A3027 RMK A01 T000700-0  RH  095%=      5-min Rain = 0
KDC1 290900Z 27005KT 01/00 A3027 RMK A01 T00070000  RH  095%=      5-min Rain = 0
KDC1 290901Z 28005KT 01/00 A3027 RMK A01 T000700-0  RH  095%=      5-min Rain = 0
KDC1 290902Z 29006KT 01/00 A3028 RMK A01 T000800-0  RH  095%=      5-min Rain = 0
KDC1 290903Z 30006KT 01/00 A3028 RMK A01 T00080000  RH  094%=      5-min Rain = 0
KDC1 290904Z 30006KT 01/00 A3028 RMK A01 T00090001  RH  094%=      5-min Rain = 0
KDC1 290905Z 29006KT 01/00 A3028 RMK A01 T00100002  RH  094%=      5-min Rain = 0
KDC1 290906Z 29006KT 01/00 A3028 RMK A01 T00100002  RH  094%=      5-min Rain = 0
KDC1 290907Z 28006KT 01/00 A3028 RMK A01 T00100001  RH  094%=      5-min Rain = 0
KDC1 290908Z 28005KT 01/00 A3028 RMK A01 T00100001  RH  094%=      5-min Rain = 0
KDC1 290909Z 28005KT 01/00 A3028 RMK A01 T000900-0  RH  093%=      5-min Rain = 0
KDC1 290910Z 29005KT 01/M00 A3028 RMK A01 T00081001  RH  093%=      5-min Rain = 0
KDC1 290911Z 29005KT 01/M00 A3028 RMK A01 T00081001  RH  094%=      5-min Rain = 0
KDC1 290912Z 29006KT 01/M00 A3028 RMK A01 T00071002  RH  094%=      5-min Rain = 0
KDC1 290913Z 29006KT 01/M00 A3028 RMK A01 T00071002  RH  094%=      5-min Rain = 0
KDC1 290914Z 29006KT 01/M00 A3028 RMK A01 T00061003  RH  094%=      5-min Rain = 0
KDC1 290915Z 28006KT 00/M01 A3028 RMK A01 T00041005  RH  094%=      5-min Rain = 0
KDC1 290916Z 28006KT 00/M01 A3028 RMK A01 T00031006  RH  094%=      5-min Rain = 0
KDC1 290917Z 29006KT 00/M01 A3028 RMK A01 T00021007  RH  094%=      5-min Rain = 0
KDC1 290918Z 29006KT 00/M01 A3028 RMK A01 T00021007  RH  094%=      5-min Rain = 0
KDC1 290919Z 29005KT 00/M01 A3028 RMK A01 T00011006  RH  095%=      5-min Rain = 0
KDC1 290920Z 29006KT 00/M01 A3028 RMK A01 T00011006  RH  095%=      5-min Rain = 0
KDC1 290921Z 29006KT 00/M01 A3028 RMK A01 T00021005  RH  095%=      5-min Rain = 0
KDC1 290922Z 29007KT 00/M00 A3028 RMK A01 T00031004  RH  096%=      5-min Rain = 0
KDC1 290923Z 29007KT 00/M00 A3028 RMK A01 T00031003  RH  096%=      5-min Rain = 0
KDC1 290924Z 29007KT 00/M00 A3028 RMK A01 T00041002  RH  096%=      5-min Rain = 0
KDC1 290925Z 29007KT 01/M00 A3028 RMK A01 T00051001  RH  096%=      5-min Rain = 0
KDC1 290926Z 29007KT 01/00 A3028 RMK A01 T000500-0  RH  096%=      5-min Rain = 0
KDC1 290927Z 29007KT 01/00 A3028 RMK A01 T000600-0  RH  096%=      5-min Rain = 0
KDC1 290928Z 28007KT 01/00 A3028 RMK A01 T00060000  RH  096%=      5-min Rain = 0
KDC1 290929Z 28007KT 01/00 A3028 RMK A01 T00060000  RH  096%=      5-min Rain = 0
KDC1 290930Z 28007KT 01/00 A3028 RMK A01 T00070000  RH  096%=      5-min Rain = 0
KDC1 290931Z 29007KT 01/00 A3028 RMK A01 T00070000  RH  095%=      5-min Rain = 0
KDC1 290932Z 29007KT 01/00 A3028 RMK A01 T00070000  RH  095%=      5-min Rain = 0
KDC1 290933Z 28007KT 01/00 A3028 RMK A01 T00080001  RH  095%=      5-min Rain = 0
KDC1 290934Z 29006KT 01/00 A3028 RMK A01 T00080001  RH  095%=      5-min Rain = 0
KDC1 290935Z 29006KT 01/00 A3028 RMK A01 T00080001  RH  095%=      5-min Rain = 0
KDC1 290936Z 29007KT 01/00 A3028 RMK A01 T00080001  RH  095%=      5-min Rain = 0
KDC1 290937Z 29007KT 01/00 A3028 RMK A01 T00080001  RH  095%=      5-min Rain = 0
KDC1 290938Z 29008KT 01/00 A3028 RMK A01 T00080001  RH  095%=      5-min Rain = 0
KDC1 290939Z 29008KT 01/00 A3028 RMK A01 T00080000  RH  095%=      5-min Rain = 0
KDC1 290940Z 28008KT 01/00 A3028 RMK A01 T00080000  RH  095%=      5-min Rain = 0
KDC1 290941Z 29008KT 01/00 A3028 RMK A01 T000800-0  RH  095%=      5-min Rain = 0
KDC1 290942Z 29008KT 01/00 A3028 RMK A01 T000700-0  RH  095%=      5-min Rain = 0
KDC1 290943Z 29007KT 01/M00 A3028 RMK A01 T00071001  RH  094%=      5-min Rain = 0
KDC1 290944Z 29007KT 01/M00 A3028 RMK A01 T00061001  RH  095%=      5-min Rain = 0
KDC1 290945Z 29007KT 01/M00 A3028 RMK A01 T00061002  RH  094%=      5-min Rain = 0
KDC1 290946Z 29007KT 01/M00 A3028 RMK A01 T00061002  RH  095%=      5-min Rain = 0
KDC1 290947Z 29007KT 01/M00 A3028 RMK A01 T00051003  RH  095%=      5-min Rain = 0
KDC1 290948Z 29006KT 01/M00 A3028 RMK A01 T00051003  RH  095%=      5-min Rain = 0
KDC1 290949Z 29006KT 01/M00 A3028 RMK A01 T00051003  RH  095%=      5-min Rain = 0
KDC1 290950Z 29005KT 01/M00 A3028 RMK A01 T00051003  RH  095%=      5-min Rain = 0
KDC1 290951Z 28005KT 00/M00 A3028 RMK A01 T00041004  RH  095%=      5-min Rain = 0
KDC1 290952Z 28005KT 00/M00 A3028 RMK A01 T00041004  RH  095%=      5-min Rain = 0
KDC1 290953Z 27005KT 00/M00 A3028 RMK A01 T00041004  RH  095%=      5-min Rain = 0
KDC1 290954Z 26005KT 00/M00 A3028 RMK A01 T00041003  RH  095%=      5-min Rain = 0
KDC1 290955Z 26005KT 01/M00 A3028 RMK A01 T00051002  RH  095%=      5-min Rain = 0
KDC1 290956Z 26005KT 01/M00 A3028 RMK A01 T00051001  RH  095%=      5-min Rain = 0
KDC1 290957Z 25005KT 01/M00 A3028 RMK A01 T00051002  RH  095%=      5-min Rain = 0
KDC1 290958Z 26006KT 01/M00 A3028 RMK A01 T00061002  RH  095%=      5-min Rain = 0
KDC1 290959Z 26006KT 01/M00 A3029 RMK A01 T00051002  RH  095%=      5-min Rain = 0
KDC1 291000Z 27007KT 00/M00 A3029 RMK A01 T00041004  RH  094%=      5-min Rain = 0
KDC1 291001Z 27007KT 00/M01 A3028 RMK A01 T00031006  RH  094%=      5-min Rain = 0
KDC1 291002Z 28007KT 00/M01 A3028 RMK A01 T00011007  RH  094%=      5-min Rain = 0
KDC1 291003Z 28007KT 00/M01 A3029 RMK A01 T00011008  RH  094%=      5-min Rain = 0
KDC1 291004Z 27006KT 00/01 A3029 RMK A01 T00-000-8  RH  094%=      5-min Rain = 0
KDC1 291005Z 28005KT M00/M01 A3029 RMK A01 T10011008  RH  095%=      5-min Rain = 0
KDC1 291006Z 28006KT M00/M01 A3029 RMK A01 T10011009  RH  095%=      5-min Rain = 0
KDC1 291007Z 27007KT M00/M01 A3029 RMK A01 T10021009  RH  095%=      5-min Rain = 0
KDC1 291008Z 28007KT M00/M01 A3029 RMK A01 T10031010  RH  095%=      5-min Rain = 0
KDC1 291009Z 28007KT M00/M01 A3029 RMK A01 T10031010  RH  095%=      5-min Rain = 0
KDC1 291010Z 28006KT M00/M01 A3029 RMK A01 T10041011  RH  095%=      5-min Rain = 0
KDC1 291011Z 28006KT M00/M01 A3029 RMK A01 T10041010  RH  096%=      5-min Rain = 0
KDC1 291012Z 28007KT M01/M01 A3029 RMK A01 T10051011  RH  096%=      5-min Rain = 0
KDC1 291013Z 28007KT M01/M01 A3029 RMK A01 T10051011  RH  096%=      5-min Rain = 0
KDC1 291014Z 28008KT M01/M01 A3029 RMK A01 T10051011  RH  096%=      5-min Rain = 0
KDC1 291015Z 28007KT M01/M01 A3029 RMK A01 T10051010  RH  096%=      5-min Rain = 0
KDC1 291016Z 29007KT M01/M01 A3029 RMK A01 T10051010  RH  096%=      5-min Rain = 0
KDC1 291017Z 30007KT M00/M01 A3029 RMK A01 T10041009  RH  096%=      5-min Rain = 0
KDC1 291018Z 30007KT M00/M01 A3029 RMK A01 T10041009  RH  097%=      5-min Rain = 0
KDC1 291019Z 30006KT M00/M01 A3029 RMK A01 T10031008  RH  097%=      5-min Rain = 0
KDC1 291020Z 30006KT M00/M01 A3029 RMK A01 T10031007  RH  097%=      5-min Rain = 0
KDC1 291021Z 30007KT M00/M01 A3029 RMK A01 T10021006  RH  097%=      5-min Rain = 0
KDC1 291022Z 30007KT M00/M01 A3029 RMK A01 T10011005  RH  097%=      5-min Rain = 0
KDC1 291023Z 30006KT 00/01 A3029 RMK A01 T00-000-5  RH  097%=      5-min Rain = 0
KDC1 291024Z 30006KT 00/01 A3029 RMK A01 T00-000-5  RH  096%=      5-min Rain = 0
KDC1 291025Z 35004KT 00/01 A303 RMK A01 T00-000-6  RH  096%=      5-min Rain = 0
KDC1 291026Z 04005KT 00/01 A303 RMK A01 T00-000-6  RH  096%=      5-min Rain = 0
KDC1 291027Z 03005KT 00/01 A303 RMK A01 T00-000-6  RH  096%=      5-min Rain = 0
KDC1 291028Z 00003KT M00/M01 A303 RMK A01 T10011007  RH  096%=      5-min Rain = 0
KDC1 291029Z 33003KT M00/M01 A3029 RMK A01 T10011007  RH  096%=      5-min Rain = 0
KDC1 291030Z 31005KT M00/M01 A3029 RMK A01 T10011007  RH  096%=      5-min Rain = 0
KDC1 291031Z 31005KT M00/M01 A3029 RMK A01 T10021007  RH  096%=      5-min Rain = 0
KDC1 291032Z 30005KT M00/M01 A3029 RMK A01 T10021007  RH  096%=      5-min Rain = 0
KDC1 291033Z 30006KT M00/M01 A303 RMK A01 T10021007  RH  096%=      5-min Rain = 0
KDC1 291034Z 30007KT M00/M01 A303 RMK A01 T10021007  RH  096%=      5-min Rain = 0
KDC1 291035Z 30006KT 00/00 A303 RMK A01 T000000-4  RH  097%=      5-min Rain = 0
KDC1 291036Z 30007KT 00/M00 A303 RMK A01 T00021002  RH  097%=      5-min Rain = 0
KDC1 291037Z 31006KT 00/M00 A303 RMK A01 T00021002  RH  097%=      5-min Rain = 0
KDC1 291038Z 32005KT 00/M00 A303 RMK A01 T00021003  RH  096%=      5-min Rain = 0
KDC1 291039Z 34004KT 00/M00 A303 RMK A01 T00011004  RH  096%=      5-min Rain = 0
KDC1 291040Z 03004KT 00/01 A303 RMK A01 T000000-6  RH  096%=      5-min Rain = 0
KDC1 291041Z 03004KT M00/M01 A303 RMK A01 T10011008  RH  095%=      5-min Rain = 0
KDC1 291042Z 36003KT M00/M01 A303 RMK A01 T10021009  RH  095%=      5-min Rain = 0
KDC1 291043Z 32003KT M00/M01 A303 RMK A01 T10031010  RH  095%=      5-min Rain = 0
KDC1 291044Z 32003KT M00/M01 A303 RMK A01 T10031010  RH  095%=      5-min Rain = 0
KDC1 291045Z 33004KT M00/M01 A303 RMK A01 T10041010  RH  096%=      5-min Rain = 0
KDC1 291046Z 33006KT M00/M01 A3031 RMK A01 T10031009  RH  096%=      5-min Rain = 0
KDC1 291047Z 33006KT M00/M01 A3031 RMK A01 T10031008  RH  096%=      5-min Rain = 0
KDC1 291048Z 32005KT M00/M01 A303 RMK A01 T10011006  RH  096%=      5-min Rain = 0
KDC1 291049Z 32004KT 00/01 A3031 RMK A01 T00-000-5  RH  097%=      5-min Rain = 0
KDC1 291050Z 32004KT 00/01 A3031 RMK A01 T00-000-6  RH  096%=      5-min Rain = 0
KDC1 291051Z 32004KT M00/M01 A3031 RMK A01 T10011007  RH  096%=      5-min Rain = 0
KDC1 291052Z 32005KT M00/M01 A3031 RMK A01 T10011007  RH  096%=      5-min Rain = 0
KDC1 291053Z 32005KT M00/M01 A3031 RMK A01 T10011007  RH  096%=      5-min Rain = 0
KDC1 291054Z 30004KT M00/M01 A3031 RMK A01 T10011007  RH  096%=      5-min Rain = 0
KDC1 291055Z 31005KT M00/M01 A3031 RMK A01 T10031009  RH  096%=      5-min Rain = 0
KDC1 291056Z 33005KT M00/M01 A3031 RMK A01 T10031009  RH  096%=      5-min Rain = 0
KDC1 291057Z 34004KT M00/M01 A3031 RMK A01 T10031009  RH  096%=      5-min Rain = 0
KDC1 291058Z 33004KT M00/M01 A3031 RMK A01 T10031009  RH  096%=      5-min Rain = 0
KDC1 291059Z 32003KT M00/M01 A3031 RMK A01 T10031009  RH  096%=      5-min Rain = 0
KDC1 291100Z 31003KT M00/M01 A3031 RMK A01 T10031009  RH  096%=      5-min Rain = 0
KDC1 291101Z 33004KT M00/M01 A3031 RMK A01 T10041009  RH  096%=      5-min Rain = 0
KDC1 291102Z 33003KT M00/M01 A3031 RMK A01 T10031009  RH  096%=      5-min Rain = 0
KDC1 291103Z 33002KT M00/M01 A3031 RMK A01 T10031008  RH  096%=      5-min Rain = 0
KDC1 291104Z 33001KT M00/M01 A3031 RMK A01 T10021007  RH  096%=      5-min Rain = 0
KDC1 291105Z 02001KT M00/M01 A3031 RMK A01 T10021007  RH  096%=      5-min Rain = 0
KDC1 291106Z 04001KT M00/M01 A3032 RMK A01 T10011006  RH  096%=      5-min Rain = 0
KDC1 291107Z 05001KT M00/M01 A3032 RMK A01 T10011006  RH  097%=      5-min Rain = 0
KDC1 291108Z 06000KT M00/M01 A3032 RMK A01 T10011006  RH  096%=      5-min Rain = 0
KDC1 291109Z 00000KT M00/M01 A3031 RMK A01 T10011006  RH  096%=      5-min Rain = 0
KDC1 291110Z 35001KT M00/M01 A3031 RMK A01 T10021007  RH  096%=      5-min Rain = 0
KDC1 291111Z 03002KT M00/M01 A3032 RMK A01 T10021007  RH  096%=      5-min Rain = 0
KDC1 291112Z 03003KT M00/M01 A3032 RMK A01 T10021008  RH  096%=      5-min Rain = 0
KDC1 291113Z 02003KT M00/M01 A3032 RMK A01 T10031010  RH  096%=      5-min Rain = 0
KDC1 291114Z 00003KT M00/M01 A3031 RMK A01 T10041011  RH  095%=      5-min Rain = 0
KDC1 291115Z 35004KT M01/M01 A3032 RMK A01 T10051011  RH  095%=      5-min Rain = 0
KDC1 291116Z 36005KT M01/M01 A3032 RMK A01 T10061013  RH  095%=      5-min Rain = 0
KDC1 291117Z 00004KT M01/M01 A3032 RMK A01 T10071014  RH  095%=      5-min Rain = 0
KDC1 291118Z 35003KT M01/M02 A3032 RMK A01 T10081015  RH  095%=      5-min Rain = 0
KDC1 291119Z 34002KT M01/M01 A3032 RMK A01 T10081014  RH  096%=      5-min Rain = 0
KDC1 291120Z 33000KT M01/M01 A3032 RMK A01 T10071013  RH  096%=      5-min Rain = 0
KDC1 291121Z 12001KT M01/M01 A3032 RMK A01 T10061011  RH  096%=      5-min Rain = 0
KDC1 291122Z 14001KT M01/M01 A3032 RMK A01 T10071013  RH  096%=      5-min Rain = 0
KDC1 291123Z 13000KT M01/M02 A3032 RMK A01 T10101016  RH  096%=      5-min Rain = 0
KDC1 291124Z 29001KT M01/M02 A3032 RMK A01 T10101016  RH  096%=      5-min Rain = 0
KDC1 291125Z 30002KT M01/M02 A3032 RMK A01 T10101015  RH  096%=      5-min Rain = 0
KDC1 291126Z 29003KT M01/M01 A3032 RMK A01 T10091014  RH  096%=      5-min Rain = 0
KDC1 291127Z 30002KT M01/M01 A3032 RMK A01 T10061010  RH  097%=      5-min Rain = 0
KDC1 291128Z 32001KT M01/M01 A3032 RMK A01 T10051009  RH  097%=      5-min Rain = 0
KDC1 291129Z 07001KT M01/M01 A3032 RMK A01 T10051009  RH  097%=      5-min Rain = 0
KDC1 291130Z 07000KT M01/M01 A3032 RMK A01 T10061011  RH  096%=      5-min Rain = 0
KDC1 291131Z 07000KT M01/M01 A3032 RMK A01 T10061012  RH  096%=      5-min Rain = 0
KDC1 291132Z 07001KT M01/M01 A3032 RMK A01 T10071012  RH  096%=      5-min Rain = 0
KDC1 291133Z 07001KT M01/M01 A3032 RMK A01 T10071013  RH  096%=      5-min Rain = 0
KDC1 291134Z 27001KT M01/M01 A3032 RMK A01 T10081013  RH  096%=      5-min Rain = 0
KDC1 291135Z 25001KT M01/M01 A3032 RMK A01 T10081013  RH  096%=      5-min Rain = 0
KDC1 291136Z 24001KT M01/M01 A3032 RMK A01 T10091014  RH  096%=      5-min Rain = 0
KDC1 291137Z 25001KT M01/M01 A3032 RMK A01 T10091014  RH  096%=      5-min Rain = 0
KDC1 291138Z 26001KT M01/M01 A3032 RMK A01 T10091014  RH  096%=      5-min Rain = 0
KDC1 291139Z 26002KT M01/M01 A3032 RMK A01 T10081014  RH  096%=      5-min Rain = 0
KDC1 291140Z 26002KT M01/M01 A3032 RMK A01 T10091014  RH  096%=      5-min Rain = 0
KDC1 291141Z 27002KT M01/M01 A3032 RMK A01 T10091014  RH  096%=      5-min Rain = 0
KDC1 291142Z 26002KT M01/M01 A3032 RMK A01 T10081013  RH  097%=      5-min Rain = 0
KDC1 291143Z 27002KT M01/M01 A3032 RMK A01 T10071012  RH  097%=      5-min Rain = 0
KDC1 291144Z 29002KT M01/M01 A3032 RMK A01 T10071011  RH  097%=      5-min Rain = 0
KDC1 291145Z 31002KT M01/M01 A3032 RMK A01 T10071011  RH  097%=      5-min Rain = 0
KDC1 291146Z 31002KT M01/M01 A3032 RMK A01 T10071011  RH  097%=      5-min Rain = 0
KDC1 291147Z 30002KT M01/M01 A3032 RMK A01 T10071011  RH  097%=      5-min Rain = 0
KDC1 291148Z 29003KT M01/M01 A3032 RMK A01 T10091014  RH  097%=      5-min Rain = 0
KDC1 291149Z 28002KT M01/M02 A3032 RMK A01 T10101015  RH  096%=      5-min Rain = 0
KDC1 291150Z 28002KT M01/M02 A3032 RMK A01 T10111016  RH  096%=      5-min Rain = 0
KDC1 291151Z 27003KT M01/M02 A3032 RMK A01 T10121017  RH  096%=      5-min Rain = 0
KDC1 291152Z 27003KT M01/M02 A3032 RMK A01 T10121016  RH  097%=      5-min Rain = 0
KDC1 291153Z 28003KT M01/M02 A3032 RMK A01 T10111015  RH  097%=      5-min Rain = 0
KDC1 291154Z 27003KT M01/M01 A3032 RMK A01 T10101014  RH  097%=      5-min Rain = 0
KDC1 291155Z 27004KT M01/M01 A3032 RMK A01 T10101014  RH  097%=      5-min Rain = 0
KDC1 291156Z 27004KT M01/M01 A3033 RMK A01 T10091013  RH  097%=      5-min Rain = 0
KDC1 291157Z 28003KT M01/M01 A3033 RMK A01 T10091013  RH  097%=      5-min Rain = 0
KDC1 291158Z 28003KT M01/M01 A3032 RMK A01 T10091013  RH  097%=      5-min Rain = 0
KDC1 291159Z 28004KT M01/M01 A3032 RMK A01 T10091013  RH  097%=      5-min Rain = 0
KDC1 291200Z 28004KT M01/M01 A3032 RMK A01 T10101014  RH  097%=      5-min Rain = 0
KDC1 291201Z 28005KT M01/M02 A3032 RMK A01 T10111016  RH  097%=      5-min Rain = 0
KDC1 291202Z 28005KT M01/M02 A3032 RMK A01 T10131017  RH  097%=      5-min Rain = 0
KDC1 291203Z 28005KT M01/M02 A3032 RMK A01 T10141018  RH  097%=      5-min Rain = 0
KDC1 291204Z 28005KT M01/M02 A3032 RMK A01 T10131018  RH  097%=      5-min Rain = 0
KDC1 291205Z 27006KT M01/M02 A3033 RMK A01 T10131017  RH  097%=      5-min Rain = 0
KDC1 291206Z 26005KT M01/M02 A3032 RMK A01 T10131017  RH  097%=      5-min Rain = 0
KDC1 291207Z 25005KT M01/M02 A3032 RMK A01 T10121016  RH  097%=      5-min Rain = 0
KDC1 291208Z 25004KT M01/M02 A3032 RMK A01 T10111015  RH  097%=      5-min Rain = 0
KDC1 291209Z 24003KT M01/M01 A3033 RMK A01 T10101014  RH  098%=      5-min Rain = 0
KDC1 291210Z 25003KT M01/M01 A3033 RMK A01 T10101013  RH  098%=      5-min Rain = 0
KDC1 291211Z 27004KT M01/M01 A3033 RMK A01 T10101013  RH  098%=      5-min Rain = 0
KDC1 291212Z 27004KT M01/M01 A3033 RMK A01 T10101013  RH  098%=      5-min Rain = 0
KDC1 291213Z 28004KT M01/M01 A3033 RMK A01 T10101013  RH  097%=      5-min Rain = 0
KDC1 291214Z 28004KT M01/M01 A3033 RMK A01 T10101013  RH  097%=      5-min Rain = 0
KDC1 291215Z 28004KT M01/M01 A3033 RMK A01 T10111014  RH  097%=      5-min Rain = 0
KDC1 291216Z 29004KT M01/M02 A3032 RMK A01 T10111015  RH  097%=      5-min Rain = 0
KDC1 291217Z 29004KT M01/M02 A3032 RMK A01 T10121017  RH  097%=      5-min Rain = 0
KDC1 291218Z 28003KT M01/M02 A3032 RMK A01 T10131018  RH  097%=      5-min Rain = 0
KDC1 291219Z 27003KT M01/M02 A3032 RMK A01 T10141019  RH  097%=      5-min Rain = 0
KDC1 291220Z 27004KT M01/M02 A3032 RMK A01 T10141019  RH  097%=      5-min Rain = 0
KDC1 291221Z 26005KT M01/M02 A3032 RMK A01 T10141018  RH  097%=      5-min Rain = 0
KDC1 291222Z 26005KT M01/M02 A3032 RMK A01 T10131017  RH  097%=      5-min Rain = 0
KDC1 291223Z 25004KT M01/M02 A3033 RMK A01 T10131016  RH  097%=      5-min Rain = 0
KDC1 291224Z 24003KT M01/M02 A3033 RMK A01 T10121016  RH  097%=      5-min Rain = 0
KDC1 291225Z 25004KT M01/M02 A3033 RMK A01 T10121016  RH  097%=      5-min Rain = 0
KDC1 291226Z 26004KT M01/M02 A3033 RMK A01 T10111015  RH  097%=      5-min Rain = 0
KDC1 291227Z 26003KT M01/M01 A3033 RMK A01 T10111014  RH  098%=      5-min Rain = 0
KDC1 291228Z 27003KT M01/M02 A3033 RMK A01 T10111015  RH  098%=      5-min Rain = 0
KDC1 291229Z 26003KT M01/M01 A3033 RMK A01 T10111014  RH  097%=      5-min Rain = 0
KDC1 291230Z 25003KT M01/M01 A3033 RMK A01 T10111014  RH  097%=      5-min Rain = 0
KDC1 291231Z 22003KT M01/M01 A3033 RMK A01 T10111014  RH  097%=      5-min Rain = 0
KDC1 291232Z 20002KT M01/M01 A3033 RMK A01 T10101014  RH  097%=      5-min Rain = 0
KDC1 291233Z 21002KT M01/M01 A3033 RMK A01 T10101013  RH  097%=      5-min Rain = 0
KDC1 291234Z 19001KT M01/M01 A3033 RMK A01 T10091012  RH  098%=      5-min Rain = 0
KDC1 291235Z 16002KT M01/M01 A3033 RMK A01 T10091013  RH  097%=      5-min Rain = 0
KDC1 291236Z 18002KT M01/M01 A3033 RMK A01 T10101014  RH  097%=      5-min Rain = 0
KDC1 291237Z 20002KT M01/M02 A3033 RMK A01 T10111015  RH  097%=      5-min Rain = 0
KDC1 291238Z 23001KT M01/M02 A3033 RMK A01 T10111015  RH  097%=      5-min Rain = 0
KDC1 291239Z 25002KT M01/M02 A3033 RMK A01 T10111015  RH  097%=      5-min Rain = 0
KDC1 291240Z 26002KT M01/M02 A3033 RMK A01 T10121016  RH  097%=      5-min Rain = 0
KDC1 291241Z 24001KT M01/M02 A3033 RMK A01 T10111015  RH  097%=      5-min Rain = 0
KDC1 291242Z 22002KT M01/M02 A3033 RMK A01 T10111015  RH  097%=      5-min Rain = 0
KDC1 291243Z 21001KT M01/M02 A3033 RMK A01 T10111015  RH  097%=      5-min Rain = 0
KDC1 291244Z 22001KT M01/M02 A3033 RMK A01 T10111015  RH  097%=      5-min Rain = 0
KDC1 291245Z 22001KT M01/M02 A3033 RMK A01 T10121016  RH  097%=      5-min Rain = 0
KDC1 291246Z 23002KT M01/M02 A3033 RMK A01 T10121016  RH  097%=      5-min Rain = 0
KDC1 291247Z 24001KT M01/M02 A3033 RMK A01 T10121016  RH  097%=      5-min Rain = 0
KDC1 291248Z 26002KT M01/M02 A3033 RMK A01 T10121016  RH  097%=      5-min Rain = 0
KDC1 291249Z 27002KT M01/M02 A3033 RMK A01 T10121016  RH  097%=      5-min Rain = 0
KDC1 291250Z 29002KT M01/M02 A3033 RMK A01 T10121015  RH  097%=      5-min Rain = 0
KDC1 291251Z 30002KT M01/M02 A3033 RMK A01 T10121016  RH  097%=      5-min Rain = 0
KDC1 291252Z 31002KT M01/M02 A3032 RMK A01 T10121016  RH  097%=      5-min Rain = 0
KDC1 291253Z 33002KT M01/M02 A3032 RMK A01 T10131017  RH  097%=      5-min Rain = 0
KDC1 291254Z 35002KT M01/M02 A3032 RMK A01 T10141018  RH  097%=      5-min Rain = 0
KDC1 291255Z 36003KT M02/M02 A3032 RMK A01 T10151020  RH  097%=      5-min Rain = 0
KDC1 291256Z 01002KT M02/M02 A3032 RMK A01 T10161021  RH  097%=      5-min Rain = 0
KDC1 291257Z 01002KT M02/M02 A3032 RMK A01 T10161021  RH  097%=      5-min Rain = 0
KDC1 291258Z 02002KT M02/M02 A3032 RMK A01 T10161020  RH  097%=      5-min Rain = 0
KDC1 291259Z 02002KT M02/M02 A3032 RMK A01 T10161020  RH  097%=      5-min Rain = 0
KDC1 291300Z 02002KT M02/M02 A3032 RMK A01 T10161020  RH  097%=      5-min Rain = 0
KDC1 291301Z 02001KT M02/M02 A3032 RMK A01 T10161020  RH  097%=      5-min Rain = 0
KDC1 291302Z 02000KT M02/M02 A3032 RMK A01 T10161020  RH  097%=      5-min Rain = 0
KDC1 291303Z 00000KT M02/M02 A3032 RMK A01 T10151018  RH  098%=      5-min Rain = 0
KDC1 291304Z 00000KT M01/M02 A3032 RMK A01 T10131016  RH  098%=      5-min Rain = 0
KDC1 291305Z 00000KT M01/M02 A3032 RMK A01 T10131016  RH  098%=      5-min Rain = 0
KDC1 291306Z 00000KT M01/M02 A3032 RMK A01 T10141017  RH  098%=      5-min Rain = 0
KDC1 291307Z 27001KT M01/M02 A3032 RMK A01 T10141017  RH  098%=      5-min Rain = 0
KDC1 291308Z 29001KT M01/M02 A3033 RMK A01 T10141017  RH  098%=      5-min Rain = 0
KDC1 291309Z 36000KT M01/M02 A3033 RMK A01 T10141017  RH  098%=      5-min Rain = 0
KDC1 291310Z 01000KT M01/M02 A3033 RMK A01 T10141018  RH  098%=      5-min Rain = 0
KDC1 291311Z 02000KT M02/M02 A3032 RMK A01 T10151018  RH  098%=      5-min Rain = 0
KDC1 291312Z 02001KT M02/M02 A3032 RMK A01 T10151019  RH  098%=      5-min Rain = 0
KDC1 291313Z 04001KT M02/M02 A3032 RMK A01 T10151018  RH  098%=      5-min Rain = 0
KDC1 291314Z 04001KT M02/M02 A3032 RMK A01 T10151019  RH  098%=      5-min Rain = 0
KDC1 291315Z 03002KT M02/M02 A3032 RMK A01 T10151019  RH  097%=      5-min Rain = 0
KDC1 291316Z 02002KT M02/M02 A3032 RMK A01 T10151019  RH  097%=      5-min Rain = 0
KDC1 291317Z 01002KT M02/M02 A3032 RMK A01 T10161019  RH  097%=      5-min Rain = 0
KDC1 291318Z 01001KT M02/M02 A3032 RMK A01 T10161020  RH  097%=      5-min Rain = 0
KDC1 291319Z 01001KT M02/M02 A3033 RMK A01 T10161020  RH  097%=      5-min Rain = 0
KDC1 291320Z 00000KT M02/M02 A3033 RMK A01 T10171021  RH  097%=      5-min Rain = 0
KDC1 291321Z 27000KT M02/M02 A3033 RMK A01 T10161020  RH  097%=      5-min Rain = 0
KDC1 291322Z 27000KT M02/M02 A3033 RMK A01 T10161019  RH  098%=      5-min Rain = 0
KDC1 291323Z 28001KT M02/M02 A3033 RMK A01 T10151018  RH  098%=      5-min Rain = 0
KDC1 291324Z 32001KT M02/M02 A3033 RMK A01 T10151019  RH  097%=      5-min Rain = 0
KDC1 291325Z 34001KT M02/M02 A3033 RMK A01 T10151019  RH  097%=      5-min Rain = 0
KDC1 291326Z 35002KT M02/M02 A3033 RMK A01 T10151019  RH  097%=      5-min Rain = 0
KDC1 291327Z 01002KT M02/M02 A3033 RMK A01 T10151018  RH  097%=      5-min Rain = 0
KDC1 291328Z 01003KT M01/M02 A3033 RMK A01 T10141018  RH  097%=      5-min Rain = 0
KDC1 291329Z 00003KT M01/M02 A3033 RMK A01 T10141018  RH  097%=      5-min Rain = 0
KDC1 291330Z 00004KT M01/M02 A3033 RMK A01 T10141018  RH  097%=      5-min Rain = 0
KDC1 291331Z 00005KT M02/M02 A3033 RMK A01 T10151019  RH  097%=      5-min Rain = 0
KDC1 291332Z 36005KT M02/M02 A3033 RMK A01 T10151020  RH  097%=      5-min Rain = 0
KDC1 291333Z 36004KT M02/M02 A3033 RMK A01 T10151020  RH  097%=      5-min Rain = 0
KDC1 291334Z 35004KT M02/M02 A3033 RMK A01 T10151020  RH  097%=      5-min Rain = 0
KDC1 291335Z 35004KT M02/M02 A3033 RMK A01 T10151019  RH  097%=      5-min Rain = 0
KDC1 291336Z 34004KT M01/M02 A3033 RMK A01 T10131018  RH  097%=      5-min Rain = 0
KDC1 291337Z 34003KT M01/M02 A3033 RMK A01 T10131017  RH  097%=      5-min Rain = 0
KDC1 291338Z 34003KT M01/M02 A3033 RMK A01 T10121016  RH  097%=      5-min Rain = 0
KDC1 291339Z 33003KT M01/M02 A3033 RMK A01 T10131017  RH  097%=      5-min Rain = 0
KDC1 291340Z 32002KT M01/M02 A3033 RMK A01 T10141018  RH  097%=      5-min Rain = 0
KDC1 291341Z 31002KT M01/M02 A3033 RMK A01 T10141019  RH  096%=      5-min Rain = 0
KDC1 291342Z 31002KT M01/M02 A3033 RMK A01 T10141020  RH  096%=      5-min Rain = 0
KDC1 291343Z 29002KT M02/M02 A3034 RMK A01 T10151020  RH  096%=      5-min Rain = 0
KDC1 291344Z 27003KT M01/M02 A3034 RMK A01 T10141018  RH  097%=      5-min Rain = 0
KDC1 291345Z 25004KT M01/M02 A3034 RMK A01 T10121017  RH  097%=      5-min Rain = 0
KDC1 291346Z 24003KT M01/M02 A3034 RMK A01 T10111016  RH  097%=      5-min Rain = 0
KDC1 291347Z 24003KT M01/M02 A3034 RMK A01 T10101015  RH  097%=      5-min Rain = 0
KDC1 291348Z 24004KT M01/M01 A3034 RMK A01 T10091014  RH  097%=      5-min Rain = 0
KDC1 291349Z 23003KT M01/M01 A3034 RMK A01 T10091014  RH  097%=      5-min Rain = 0
KDC1 291350Z 22003KT M01/M01 A3034 RMK A01 T10081013  RH  097%=      5-min Rain = 0
KDC1 291351Z 22004KT M01/M01 A3034 RMK A01 T10081013  RH  096%=      5-min Rain = 0
KDC1 291352Z 24003KT M01/M01 A3034 RMK A01 T10071012  RH  096%=      5-min Rain = 0
KDC1 291353Z 24002KT M01/M01 A3034 RMK A01 T10071012  RH  096%=      5-min Rain = 0
KDC1 291354Z 24003KT M01/M01 A3034 RMK A01 T10061012  RH  096%=      5-min Rain = 0
KDC1 291355Z 25002KT M01/M01 A3034 RMK A01 T10061012  RH  096%=      5-min Rain = 0
KDC1 291356Z 26002KT M01/M01 A3034 RMK A01 T10061012  RH  096%=      5-min Rain = 0
KDC1 291357Z 26003KT M01/M01 A3034 RMK A01 T10061012  RH  095%=      5-min Rain = 0
KDC1 291358Z 27004KT M01/M01 A3034 RMK A01 T10061012  RH  095%=      5-min Rain = 0
KDC1 291359Z 26004KT M01/M01 A3034 RMK A01 T10061013  RH  095%=      5-min Rain = 0
KDC1 291400Z 25004KT M01/M01 A3034 RMK A01 T10061012  RH  095%=      5-min Rain = 0
KDC1 291401Z 25003KT M01/M01 A3034 RMK A01 T10051012  RH  095%=      5-min Rain = 0
KDC1 291402Z 25003KT M00/M01 A3034 RMK A01 T10041011  RH  095%=      5-min Rain = 0
KDC1 291403Z 24003KT M00/M01 A3034 RMK A01 T10031010  RH  095%=      5-min Rain = 0
KDC1 291404Z 23003KT M00/M01 A3034 RMK A01 T10031010  RH  095%=      5-min Rain = 0
KDC1 291405Z 23002KT M00/M01 A3034 RMK A01 T10021009  RH  095%=      5-min Rain = 0
KDC1 291406Z 23002KT 00/01 A3034 RMK A01 T00-000-7  RH  095%=      5-min Rain = 0
KDC1 291407Z 22002KT 00/M01 A3034 RMK A01 T00011006  RH  095%=      5-min Rain = 0
KDC1 291408Z 22002KT 00/M01 A3034 RMK A01 T00031005  RH  095%=      5-min Rain = 0
KDC1 291409Z 22002KT 00/M00 A3035 RMK A01 T00041004  RH  095%=      5-min Rain = 0
KDC1 291410Z 24001KT 01/M00 A3035 RMK A01 T00051003  RH  094%=      5-min Rain = 0
KDC1 291411Z 25002KT 01/M00 A3035 RMK A01 T00061003  RH  094%=      5-min Rain = 0
KDC1 291412Z 24003KT 01/M00 A3035 RMK A01 T00061003  RH  094%=      5-min Rain = 0
KDC1 291413Z 25003KT 01/M00 A3035 RMK A01 T00071004  RH  093%=      5-min Rain = 0
KDC1 291414Z 26003KT 01/M00 A3035 RMK A01 T00071004  RH  093%=      5-min Rain = 0
KDC1 291415Z 27003KT 01/M00 A3035 RMK A01 T00071004  RH  093%=      5-min Rain = 0
KDC1 291416Z 26002KT 01/M00 A3035 RMK A01 T00071003  RH  093%=      5-min Rain = 0
KDC1 291417Z 26003KT 01/M00 A3035 RMK A01 T00081002  RH  093%=      5-min Rain = 0
KDC1 291418Z 26003KT 01/M00 A3035 RMK A01 T00091001  RH  093%=      5-min Rain = 0
KDC1 291419Z 25003KT 01/00 A3035 RMK A01 T00100000  RH  093%=      5-min Rain = 0
KDC1 291420Z 25003KT 01/00 A3035 RMK A01 T00110001  RH  093%=      5-min Rain = 0
KDC1 291421Z 25003KT 01/00 A3035 RMK A01 T00120002  RH  093%=      5-min Rain = 0
KDC1 291422Z 26003KT 01/00 A3035 RMK A01 T00130003  RH  093%=      5-min Rain = 0
KDC1 291423Z 26003KT 01/01 A3035 RMK A01 T00140005  RH  093%=      5-min Rain = 0
KDC1 291424Z 25003KT 02/01 A3035 RMK A01 T00160007  RH  093%=      5-min Rain = 0
KDC1 291425Z 23002KT 02/01 A3036 RMK A01 T00180008  RH  094%=      5-min Rain = 0
KDC1 291426Z 23002KT 02/01 A3036 RMK A01 T00200010  RH  094%=      5-min Rain = 0
KDC1 291427Z 23002KT 02/01 A3036 RMK A01 T00220012  RH  093%=      5-min Rain = 0
KDC1 291428Z 22003KT 02/01 A3036 RMK A01 T00240014  RH  093%=      5-min Rain = 0
KDC1 291429Z 21003KT 03/02 A3036 RMK A01 T00260016  RH  093%=      5-min Rain = 0
KDC1 291430Z 21002KT 03/02 A3036 RMK A01 T00280016  RH  092%=      5-min Rain = 0
KDC1 291431Z 23003KT 03/02 A3036 RMK A01 T00280015  RH  091%=      5-min Rain = 0
KDC1 291432Z 25003KT 03/01 A3036 RMK A01 T00290014  RH  090%=      5-min Rain = 0
KDC1 291433Z 25006KT 03/01 A3036 RMK A01 T00290014  RH  090%=      5-min Rain = 0
KDC1 291434Z 26005KT 03/02 A3036 RMK A01 T00300015  RH  090%=      5-min Rain = 0
KDC1 291435Z 25004KT 03/02 A3036 RMK A01 T00320017  RH  090%=      5-min Rain = 0
KDC1 291436Z 25003KT 03/02 A3036 RMK A01 T00330018  RH  090%=      5-min Rain = 0
KDC1 291437Z 25003KT 03/02 A3036 RMK A01 T00330018  RH  090%=      5-min Rain = 0
KDC1 291438Z 25004KT 03/02 A3037 RMK A01 T00340019  RH  090%=      5-min Rain = 0
KDC1 291439Z 25004KT 04/02 A3037 RMK A01 T00360022  RH  090%=      5-min Rain = 0
KDC1 291440Z 24005KT 04/02 A3037 RMK A01 T00390024  RH  090%=      5-min Rain = 0
KDC1 291441Z 24004KT 04/02 A3037 RMK A01 T00400024  RH  089%=      5-min Rain = 0
KDC1 291442Z 25004KT 04/02 A3037 RMK A01 T00420023  RH  088%=      5-min Rain = 0
KDC1 291443Z 25006KT 04/02 A3037 RMK A01 T00430024  RH  087%=      5-min Rain = 0
KDC1 291444Z 25005KT 04/02 A3037 RMK A01 T00440023  RH  087%=      5-min Rain = 0
KDC1 291445Z 25006KT 05/02 A3037 RMK A01 T00450024  RH  086%=      5-min Rain = 0
KDC1 291446Z 25006KT 05/03 A3037 RMK A01 T00460025  RH  086%=      5-min Rain = 0
KDC1 291447Z 25005KT 05/02 A3038 RMK A01 T00470024  RH  085%=      5-min Rain = 0
KDC1 291448Z 26005KT 05/03 A3038 RMK A01 T00480025  RH  085%=      5-min Rain = 0
KDC1 291449Z 26006KT 05/03 A3038 RMK A01 T00490026  RH  085%=      5-min Rain = 0
KDC1 291450Z 26006KT 05/03 A3038 RMK A01 T00500026  RH  084%=      5-min Rain = 0
KDC1 291451Z 26005KT 05/03 A3038 RMK A01 T00510027  RH  084%=      5-min Rain = 0
KDC1 291452Z 26005KT 05/03 A3038 RMK A01 T00510027  RH  084%=      5-min Rain = 0
KDC1 291453Z 25005KT 05/03 A3038 RMK A01 T00520026  RH  083%=      5-min Rain = 0
KDC1 291454Z 26006KT 05/03 A3038 RMK A01 T00530026  RH  083%=      5-min Rain = 0
KDC1 291455Z 26005KT 05/02 A3038 RMK A01 T00540024  RH  081%=      5-min Rain = 0
KDC1 291456Z 27005KT 06/03 A3038 RMK A01 T00550026  RH  082%=      5-min Rain = 0
KDC1 291457Z 26004KT 06/03 A3038 RMK A01 T00550026  RH  081%=      5-min Rain = 0
KDC1 291458Z 25003KT 06/03 A3038 RMK A01 T00560025  RH  081%=      5-min Rain = 0
KDC1 291459Z 27003KT 06/03 A3038 RMK A01 T00570027  RH  081%=      5-min Rain = 0
KDC1 291500Z 26003KT 06/03 A3038 RMK A01 T00580026  RH  080%=      5-min Rain = 0
KDC1 291501Z 26003KT 06/02 A3038 RMK A01 T00580024  RH  079%=      5-min Rain = 0
KDC1 291502Z 26003KT 06/02 A3038 RMK A01 T00580023  RH  078%=      5-min Rain = 0
KDC1 291503Z 27002KT 06/02 A3038 RMK A01 T00580023  RH  078%=      5-min Rain = 0
KDC1 291504Z 27002KT 06/02 A3038 RMK A01 T00590023  RH  078%=      5-min Rain = 0
KDC1 291505Z 29002KT 06/02 A3039 RMK A01 T00590024  RH  078%=      5-min Rain = 0
KDC1 291506Z 27003KT 06/02 A3039 RMK A01 T00600024  RH  078%=      5-min Rain = 0
KDC1 291507Z 27002KT 06/03 A3039 RMK A01 T00610025  RH  078%=      5-min Rain = 0
KDC1 291508Z 27002KT 06/03 A3039 RMK A01 T00620029  RH  079%=      5-min Rain = 0
KDC1 291509Z 27003KT 06/03 A3039 RMK A01 T00640029  RH  078%=      5-min Rain = 0
KDC1 291510Z 27003KT 06/03 A3039 RMK A01 T00640026  RH  077%=      5-min Rain = 0
KDC1 291511Z 27003KT 06/03 A3039 RMK A01 T00640026  RH  076%=      5-min Rain = 0
KDC1 291512Z 26003KT 07/03 A3039 RMK A01 T00650025  RH  076%=      5-min Rain = 0
KDC1 291513Z 26004KT 07/03 A3039 RMK A01 T00650025  RH  075%=      5-min Rain = 0
KDC1 291514Z 26003KT 07/02 A3039 RMK A01 T00660023  RH  074%=      5-min Rain = 0
KDC1 291515Z 26002KT 07/03 A3039 RMK A01 T00660025  RH  075%=      5-min Rain = 0
KDC1 291516Z 26002KT 07/03 A3039 RMK A01 T00670025  RH  074%=      5-min Rain = 0
KDC1 291517Z 25003KT 07/03 A3039 RMK A01 T00680026  RH  075%=      5-min Rain = 0
KDC1 291518Z 25002KT 07/03 A3039 RMK A01 T00690026  RH  074%=      5-min Rain = 0
KDC1 291519Z 27002KT 07/03 A3039 RMK A01 T00690025  RH  073%=      5-min Rain = 0
KDC1 291520Z 28002KT 07/03 A3039 RMK A01 T00710028  RH  074%=      5-min Rain = 0
KDC1 291521Z 30002KT 07/03 A3039 RMK A01 T00710025  RH  073%=      5-min Rain = 0
KDC1 291522Z 31003KT 07/02 A3039 RMK A01 T00710024  RH  072%=      5-min Rain = 0
KDC1 291523Z 30003KT 07/03 A3039 RMK A01 T00720025  RH  072%=      5-min Rain = 0
KDC1 291524Z 30002KT 07/02 A3039 RMK A01 T00720023  RH  071%=      5-min Rain = 0
KDC1 291525Z 30003KT 07/03 A3039 RMK A01 T00730025  RH  072%=      5-min Rain = 0
KDC1 291526Z 31003KT 07/03 A3039 RMK A01 T00740025  RH  071%=      5-min Rain = 0
KDC1 291527Z 32002KT 07/02 A3039 RMK A01 T00740023  RH  070%=      5-min Rain = 0
KDC1 291528Z 31002KT 08/03 A3039 RMK A01 T00750025  RH  071%=      5-min Rain = 0
KDC1 291529Z 31002KT 08/02 A3039 RMK A01 T00750022  RH  069%=      5-min Rain = 0
KDC1 291530Z 35002KT 08/02 A304 RMK A01 T00750023  RH  069%=      5-min Rain = 0
KDC1 291531Z 34002KT 08/02 A304 RMK A01 T00760022  RH  069%=      5-min Rain = 0
KDC1 291532Z 33001KT 08/02 A304 RMK A01 T00760021  RH  068%=      5-min Rain = 0
KDC1 291533Z 33000KT 08/02 A304 RMK A01 T00760021  RH  068%=      5-min Rain = 0
KDC1 291534Z 05000KT 08/02 A304 RMK A01 T00790022  RH  067%=      5-min Rain = 0
KDC1 291535Z 06001KT 08/02 A304 RMK A01 T00810023  RH  067%=      5-min Rain = 0
KDC1 291536Z 10002KT 08/02 A304 RMK A01 T00830024  RH  066%=      5-min Rain = 0
KDC1 291537Z 10003KT 09/03 A304 RMK A01 T00850025  RH  066%=      5-min Rain = 0
KDC1 291538Z 10004KT 09/03 A304 RMK A01 T00860026  RH  066%=      5-min Rain = 0
KDC1 291539Z 11005KT 08/03 A304 RMK A01 T00820030  RH  070%=      5-min Rain = 0
KDC1 291540Z 11005KT 08/03 A304 RMK A01 T00780032  RH  072%=      5-min Rain = 0
KDC1 291541Z 11005KT 08/03 A304 RMK A01 T00760033  RH  074%=      5-min Rain = 0
KDC1 291542Z 11005KT 07/03 A304 RMK A01 T00730034  RH  076%=      5-min Rain = 0
KDC1 291543Z 10005KT 07/03 A304 RMK A01 T00720033  RH  077%=      5-min Rain = 0
KDC1 291544Z 11005KT 07/03 A304 RMK A01 T00710033  RH  077%=      5-min Rain = 0
KDC1 291545Z 11005KT 07/03 A304 RMK A01 T00700034  RH  077%=      5-min Rain = 0
KDC1 291546Z 11005KT 07/03 A304 RMK A01 T00700034  RH  078%=      5-min Rain = 0
KDC1 291547Z 11004KT 07/03 A304 RMK A01 T00700034  RH  078%=      5-min Rain = 0
KDC1 291548Z 11005KT 07/03 A304 RMK A01 T00700034  RH  078%=      5-min Rain = 0
KDC1 291549Z 11005KT 07/04 A304 RMK A01 T00720035  RH  078%=      5-min Rain = 0
KDC1 291550Z 11005KT 07/03 A304 RMK A01 T00720033  RH  076%=      5-min Rain = 0
KDC1 291551Z 11004KT 07/03 A304 RMK A01 T00720034  RH  077%=      5-min Rain = 0
KDC1 291552Z 12005KT 07/03 A304 RMK A01 T00730034  RH  076%=      5-min Rain = 0
KDC1 291553Z 13005KT 07/03 A304 RMK A01 T00720032  RH  076%=      5-min Rain = 0
KDC1 291554Z 13005KT 07/03 A3041 RMK A01 T00720034  RH  077%=      5-min Rain = 0
KDC1 291555Z 13005KT 07/04 A3041 RMK A01 T00720035  RH  077%=      5-min Rain = 0
KDC1 291556Z 13006KT 07/04 A3041 RMK A01 T00730036  RH  078%=      5-min Rain = 0
KDC1 291557Z 13005KT 07/04 A304 RMK A01 T00740035  RH  077%=      5-min Rain = 0
KDC1 291558Z 13004KT 07/04 A304 RMK A01 T00740035  RH  077%=      5-min Rain = 0
KDC1 291559Z 12004KT 07/04 A304 RMK A01 T00740035  RH  076%=      5-min Rain = 0
KDC1 291600Z 13004KT 07/04 A304 RMK A01 T00740036  RH  076%=      5-min Rain = 0
KDC1 291601Z 13003KT 07/03 A304 RMK A01 T00740033  RH  075%=      5-min Rain = 0
KDC1 291602Z 14004KT 07/04 A304 RMK A01 T00740035  RH  076%=      5-min Rain = 0
KDC1 291603Z 14003KT 08/04 A304 RMK A01 T00760037  RH  076%=      5-min Rain = 0
KDC1 291604Z 12004KT 08/04 A304 RMK A01 T00770037  RH  075%=      5-min Rain = 0
KDC1 291605Z 13003KT 08/03 A304 RMK A01 T00770033  RH  074%=      5-min Rain = 0
KDC1 291606Z 12003KT 08/03 A304 RMK A01 T00760033  RH  074%=      5-min Rain = 0
KDC1 291607Z 12002KT 08/04 A304 RMK A01 T00770035  RH  075%=      5-min Rain = 0
KDC1 291608Z 12003KT 08/04 A304 RMK A01 T00790036  RH  074%=      5-min Rain = 0
KDC1 291609Z 11002KT 08/03 A304 RMK A01 T00790032  RH  072%=      5-min Rain = 0
KDC1 291610Z 10003KT 08/03 A304 RMK A01 T00780031  RH  072%=      5-min Rain = 0
KDC1 291611Z 11003KT 08/03 A304 RMK A01 T00780032  RH  073%=      5-min Rain = 0
KDC1 291612Z 13003KT 08/04 A304 RMK A01 T00790035  RH  074%=      5-min Rain = 0
KDC1 291613Z 12004KT 08/03 A304 RMK A01 T00800033  RH  072%=      5-min Rain = 0
KDC1 291614Z 12003KT 08/03 A304 RMK A01 T00800033  RH  072%=      5-min Rain = 0
KDC1 291615Z 14004KT 08/03 A304 RMK A01 T00810034  RH  072%=      5-min Rain = 0
KDC1 291616Z 15003KT 08/04 A304 RMK A01 T00820035  RH  072%=      5-min Rain = 0
KDC1 291617Z 14003KT 08/03 A304 RMK A01 T00830033  RH  071%=      5-min Rain = 0
KDC1 291618Z 13003KT 08/03 A304 RMK A01 T00830033  RH  070%=      5-min Rain = 0
KDC1 291619Z 12002KT 08/03 A304 RMK A01 T00840034  RH  071%=      5-min Rain = 0
KDC1 291620Z 17001KT 09/04 A304 RMK A01 T00850035  RH  071%=      5-min Rain = 0
KDC1 291621Z 11003KT 09/04 A304 RMK A01 T00880038  RH  071%=      5-min Rain = 0
KDC1 291622Z 13004KT 09/04 A304 RMK A01 T00890036  RH  069%=      5-min Rain = 0
KDC1 291623Z 12003KT 09/03 A304 RMK A01 T00880034  RH  069%=      5-min Rain = 0
KDC1 291624Z 11003KT 09/03 A304 RMK A01 T00870033  RH  069%=      5-min Rain = 0
KDC1 291625Z 10003KT 09/04 A304 RMK A01 T00860035  RH  070%=      5-min Rain = 0
KDC1 291626Z 15003KT 09/04 A304 RMK A01 T00870036  RH  070%=      5-min Rain = 0
KDC1 291627Z 12002KT 09/04 A304 RMK A01 T00890036  RH  069%=      5-min Rain = 0
KDC1 291628Z 15004KT 09/04 A304 RMK A01 T00910036  RH  069%=      5-min Rain = 0
KDC1 291629Z 14003KT 09/03 A304 RMK A01 T00910034  RH  067%=      5-min Rain = 0
KDC1 291630Z 14003KT 09/03 A304 RMK A01 T00920032  RH  066%=      5-min Rain = 0
KDC1 291631Z 13004KT 09/03 A304 RMK A01 T00920034  RH  067%=      5-min Rain = 0
KDC1 291632Z 14004KT 09/04 A304 RMK A01 T00930037  RH  068%=      5-min Rain = 0
KDC1 291633Z 13004KT 09/03 A304 RMK A01 T00940034  RH  066%=      5-min Rain = 0
KDC1 291634Z 12003KT 09/03 A304 RMK A01 T00930033  RH  066%=      5-min Rain = 0
KDC1 291635Z 14003KT 09/03 A304 RMK A01 T00910033  RH  067%=      5-min Rain = 0
KDC1 291636Z 12002KT 09/04 A304 RMK A01 T00920035  RH  067%=      5-min Rain = 0
KDC1 291637Z 09002KT 09/03 A304 RMK A01 T00920033  RH  066%=      5-min Rain = 0
KDC1 291638Z 05001KT 09/03 A304 RMK A01 T00920033  RH  067%=      5-min Rain = 0
KDC1 291639Z 10002KT 09/04 A304 RMK A01 T00920036  RH  068%=      5-min Rain = 0
KDC1 291640Z 09003KT 09/04 A304 RMK A01 T00920035  RH  067%=      5-min Rain = 0
KDC1 291641Z 09003KT 09/03 A304 RMK A01 T00930034  RH  067%=      5-min Rain = 0
KDC1 291642Z 12003KT 09/04 A304 RMK A01 T00920035  RH  067%=      5-min Rain = 0
KDC1 291643Z 13004KT 09/04 A304 RMK A01 T00940036  RH  067%=      5-min Rain = 0
KDC1 291644Z 10002KT 09/03 A304 RMK A01 T00940033  RH  066%=      5-min Rain = 0
KDC1 291645Z 09002KT 09/03 A304 RMK A01 T00930033  RH  066%=      5-min Rain = 0
KDC1 291646Z 09003KT 09/03 A304 RMK A01 T00930033  RH  066%=      5-min Rain = 0
KDC1 291647Z 07002KT 09/03 A304 RMK A01 T00930032  RH  066%=      5-min Rain = 0
KDC1 291648Z 06002KT 09/03 A304 RMK A01 T00930033  RH  066%=      5-min Rain = 0
KDC1 291649Z 08002KT 09/03 A3039 RMK A01 T00930034  RH  066%=      5-min Rain = 0
KDC1 291650Z 10002KT 10/04 A3039 RMK A01 T00950035  RH  066%=      5-min Rain = 0
KDC1 291651Z 11005KT 10/04 A3039 RMK A01 T00970035  RH  066%=      5-min Rain = 0
KDC1 291652Z 11004KT 10/03 A3039 RMK A01 T00960033  RH  065%=      5-min Rain = 0
KDC1 291653Z 09004KT 10/03 A3039 RMK A01 T00950032  RH  065%=      5-min Rain = 0
KDC1 291654Z 09005KT 10/03 A3039 RMK A01 T00950034  RH  066%=      5-min Rain = 0
KDC1 291655Z 12004KT 10/03 A3039 RMK A01 T00950033  RH  065%=      5-min Rain = 0
KDC1 291656Z 09002KT 10/03 A3039 RMK A01 T00960033  RH  065%=      5-min Rain = 0
KDC1 291657Z 08003KT 10/04 A3039 RMK A01 T00970036  RH  066%=      5-min Rain = 0
KDC1 291658Z 13003KT 10/04 A3039 RMK A01 T00980036  RH  065%=      5-min Rain = 0
KDC1 291659Z 15002KT 10/04 A3039 RMK A01 T01000036  RH  065%=      5-min Rain = 0
KDC1 291700Z 15003KT 10/04 A3039 RMK A01 T01020035  RH  063%=      5-min Rain = 0
KDC1 291701Z 16002KT 10/03 A3039 RMK A01 T01030032  RH  061%=      5-min Rain = 0
KDC1 291702Z 17000KT 10/03 A3039 RMK A01 T01020030  RH  061%=      5-min Rain = 0
KDC1 291703Z 00000KT 10/03 A3039 RMK A01 T01030034  RH  062%=      5-min Rain = 0
KDC1 291704Z 16001KT 11/04 A3039 RMK A01 T01050035  RH  062%=      5-min Rain = 0
KDC1 291705Z 10001KT 11/04 A3039 RMK A01 T01080037  RH  062%=      5-min Rain = 0
KDC1 291706Z 09001KT 11/04 A3039 RMK A01 T01100038  RH  061%=      5-min Rain = 0
KDC1 291707Z 06000KT 11/04 A3039 RMK A01 T01110038  RH  060%=      5-min Rain = 0
KDC1 291708Z 15003KT 11/04 A3039 RMK A01 T01140037  RH  059%=      5-min Rain = 0
KDC1 291709Z 15002KT 11/03 A3039 RMK A01 T01120031  RH  058%=      5-min Rain = 0
KDC1 291710Z 17000KT 11/03 A3039 RMK A01 T01100032  RH  059%=      5-min Rain = 0
KDC1 291711Z 13002KT 11/03 A3039 RMK A01 T01100034  RH  059%=      5-min Rain = 0
KDC1 291712Z 17004KT 11/03 A3039 RMK A01 T01120034  RH  059%=      5-min Rain = 0
KDC1 291713Z 17003KT 11/03 A3039 RMK A01 T01110032  RH  058%=      5-min Rain = 0
KDC1 291714Z 18002KT 11/03 A3039 RMK A01 T01100031  RH  058%=      5-min Rain = 0
KDC1 291715Z 16001KT 11/03 A3039 RMK A01 T01100030  RH  058%=      5-min Rain = 0
KDC1 291716Z 12001KT 11/03 A3039 RMK A01 T01100031  RH  058%=      5-min Rain = 0
KDC1 291717Z 11000KT 11/03 A3039 RMK A01 T01100031  RH  058%=      5-min Rain = 0
KDC1 291718Z 12001KT 11/03 A3039 RMK A01 T01110032  RH  058%=      5-min Rain = 0
KDC1 291719Z 17002KT 11/03 A3039 RMK A01 T01110033  RH  058%=      5-min Rain = 0
KDC1 291720Z 18003KT 11/03 A3039 RMK A01 T01120029  RH  057%=      5-min Rain = 0
KDC1 291721Z 21003KT 11/03 A3039 RMK A01 T01120029  RH  056%=      5-min Rain = 0
KDC1 291722Z 23003KT 11/03 A3038 RMK A01 T01130029  RH  056%=      5-min Rain = 0
KDC1 291723Z 22002KT 11/03 A3038 RMK A01 T01120028  RH  056%=      5-min Rain = 0
KDC1 291724Z 23001KT 11/03 A3038 RMK A01 T01110029  RH  057%=      5-min Rain = 0
KDC1 291725Z 25001KT 11/03 A3038 RMK A01 T01100029  RH  057%=      5-min Rain = 0
KDC1 291726Z 26003KT 11/03 A3038 RMK A01 T01100032  RH  058%=      5-min Rain = 0
KDC1 291727Z 28002KT 11/04 A3038 RMK A01 T01110035  RH  059%=      5-min Rain = 0
KDC1 291728Z 28002KT 11/03 A3038 RMK A01 T01120032  RH  058%=      5-min Rain = 0
KDC1 291729Z 25002KT 11/03 A3038 RMK A01 T01120033  RH  058%=      5-min Rain = 0
KDC1 291730Z 19003KT 11/03 A3038 RMK A01 T01130033  RH  058%=      5-min Rain = 0
KDC1 291731Z 17002KT 11/03 A3038 RMK A01 T01130033  RH  058%=      5-min Rain = 0
KDC1 291732Z 18002KT 12/03 A3038 RMK A01 T01150033  RH  057%=      5-min Rain = 0
KDC1 291733Z 19001KT 12/03 A3038 RMK A01 T01150031  RH  056%=      5-min Rain = 0
KDC1 291734Z 20002KT 12/03 A3038 RMK A01 T01160033  RH  057%=      5-min Rain = 0
KDC1 291735Z 19002KT 12/03 A3038 RMK A01 T01180031  RH  055%=      5-min Rain = 0
KDC1 291736Z 22001KT 12/03 A3038 RMK A01 T01190031  RH  055%=      5-min Rain = 0
KDC1 291737Z 21002KT 12/03 A3038 RMK A01 T01200031  RH  054%=      5-min Rain = 0
KDC1 291738Z 21003KT 12/03 A3038 RMK A01 T01220028  RH  053%=      5-min Rain = 0
KDC1 291739Z 22001KT 12/02 A3038 RMK A01 T01210024  RH  051%=      5-min Rain = 0
KDC1 291740Z 19002KT 12/02 A3038 RMK A01 T01190024  RH  052%=      5-min Rain = 0
KDC1 291741Z 20003KT 12/03 A3038 RMK A01 T01190025  RH  052%=      5-min Rain = 0
KDC1 291742Z 20001KT 12/02 A3038 RMK A01 T01200023  RH  052%=      5-min Rain = 0
KDC1 291743Z 19001KT 12/02 A3038 RMK A01 T01210024  RH  052%=      5-min Rain = 0
KDC1 291744Z 17003KT 12/03 A3038 RMK A01 T01240029  RH  052%=      5-min Rain = 0
KDC1 291745Z 16001KT 12/03 A3038 RMK A01 T01240025  RH  051%=      5-min Rain = 0
KDC1 291746Z 13000KT 12/03 A3038 RMK A01 T01240026  RH  051%=      5-min Rain = 0
KDC1 291747Z 16002KT 13/03 A3038 RMK A01 T01250030  RH  053%=      5-min Rain = 0
KDC1 291748Z 16002KT 13/03 A3038 RMK A01 T01270029  RH  052%=      5-min Rain = 0
KDC1 291749Z 15000KT 13/03 A3038 RMK A01 T01280030  RH  051%=      5-min Rain = 0
KDC1 291750Z 12003KT 13/03 A3037 RMK A01 T01310031  RH  051%=      5-min Rain = 0
KDC1 291751Z 16004KT 13/03 A3037 RMK A01 T01310032  RH  051%=      5-min Rain = 0
KDC1 291752Z 14003KT 13/03 A3037 RMK A01 T01310031  RH  051%=      5-min Rain = 0
KDC1 291753Z 16004KT 13/03 A3037 RMK A01 T01300032  RH  051%=      5-min Rain = 0
KDC1 291754Z 17003KT 13/03 A3037 RMK A01 T01290030  RH  051%=      5-min Rain = 0
KDC1 291755Z 16001KT 13/03 A3037 RMK A01 T01280031  RH  052%=      5-min Rain = 0
KDC1 291756Z 19000KT 13/03 A3037 RMK A01 T01280030  RH  051%=      5-min Rain = 0
KDC1 291757Z 24001KT 13/03 A3037 RMK A01 T01290031  RH  051%=      5-min Rain = 0
KDC1 291758Z 22002KT 13/03 A3037 RMK A01 T01290033  RH  052%=      5-min Rain = 0
KDC1 291759Z 23001KT 13/03 A3037 RMK A01 T01290033  RH  052%=      5-min Rain = 0
KDC1 291800Z 17002KT 13/04 A3037 RMK A01 T01300035  RH  052%=      5-min Rain = 0
KDC1 291801Z 15002KT 13/03 A3037 RMK A01 T01320032  RH  051%=      5-min Rain = 0
KDC1 291802Z 16001KT 13/03 A3037 RMK A01 T01340030  RH  049%=      5-min Rain = 0
KDC1 291803Z 19001KT 14/03 A3037 RMK A01 T01350033  RH  050%=      5-min Rain = 0
KDC1 291804Z 19001KT 14/04 A3037 RMK A01 T01360035  RH  051%=      5-min Rain = 0
KDC1 291805Z 16002KT 14/04 A3037 RMK A01 T01360036  RH  051%=      5-min Rain = 0
KDC1 291806Z 19001KT 14/04 A3037 RMK A01 T01360035  RH  050%=      5-min Rain = 0
KDC1 291807Z 27001KT 14/04 A3037 RMK A01 T01370036  RH  050%=      5-min Rain = 0
KDC1 291808Z 27000KT 14/04 A3036 RMK A01 T01370036  RH  051%=      5-min Rain = 0
KDC1 291809Z 26001KT 14/04 A3036 RMK A01 T01350038  RH  052%=      5-min Rain = 0
KDC1 291810Z 17002KT 14/04 A3036 RMK A01 T01370042  RH  053%=      5-min Rain = 0
KDC1 291811Z 26002KT 14/04 A3036 RMK A01 T01390040  RH  051%=      5-min Rain = 0
KDC1 291812Z 26003KT 14/04 A3036 RMK A01 T01400038  RH  050%=      5-min Rain = 0
KDC1 291813Z 26001KT 14/04 A3036 RMK A01 T01390037  RH  050%=      5-min Rain = 0
KDC1 291814Z 23002KT 14/04 A3036 RMK A01 T01380037  RH  051%=      5-min Rain = 0
KDC1 291815Z 19001KT 14/04 A3036 RMK A01 T01390038  RH  050%=      5-min Rain = 0
KDC1 291816Z 14003KT 14/04 A3036 RMK A01 T01410039  RH  050%=      5-min Rain = 0
KDC1 291817Z 15002KT 14/04 A3036 RMK A01 T01410035  RH  049%=      5-min Rain = 0
KDC1 291818Z 16002KT 14/04 A3036 RMK A01 T01420037  RH  049%=      5-min Rain = 0
KDC1 291819Z 18001KT 14/03 A3036 RMK A01 T01430034  RH  048%=      5-min Rain = 0
KDC1 291820Z 20000KT 14/03 A3036 RMK A01 T01430033  RH  047%=      5-min Rain = 0
KDC1 291821Z 15000KT 14/03 A3036 RMK A01 T01430034  RH  048%=      5-min Rain = 0
KDC1 291822Z 14000KT 14/04 A3036 RMK A01 T01430035  RH  048%=      5-min Rain = 0
KDC1 291823Z 21001KT 14/04 A3036 RMK A01 T01430039  RH  050%=      5-min Rain = 0
KDC1 291824Z 20002KT 14/04 A3036 RMK A01 T01430040  RH  050%=      5-min Rain = 0
KDC1 291825Z 19002KT 14/04 A3036 RMK A01 T01440041  RH  050%=      5-min Rain = 0
KDC1 291826Z 16003KT 15/04 A3036 RMK A01 T01460040  RH  049%=      5-min Rain = 0
KDC1 291827Z 15004KT 15/03 A3035 RMK A01 T01460034  RH  047%=      5-min Rain = 0
KDC1 291828Z 16004KT 14/04 A3035 RMK A01 T01440035  RH  048%=      5-min Rain = 0
KDC1 291829Z 15003KT 14/04 A3035 RMK A01 T01430039  RH  049%=      5-min Rain = 0
KDC1 291830Z 17003KT 15/04 A3035 RMK A01 T01450040  RH  050%=      5-min Rain = 0
KDC1 291831Z 21002KT 15/04 A3035 RMK A01 T01460038  RH  048%=      5-min Rain = 0
KDC1 291832Z 26001KT 15/04 A3035 RMK A01 T01470039  RH  048%=      5-min Rain = 0
KDC1 291833Z 29002KT 15/03 A3035 RMK A01 T01470033  RH  046%=      5-min Rain = 0
KDC1 291834Z 28001KT 15/04 A3035 RMK A01 T01460037  RH  048%=      5-min Rain = 0
KDC1 291835Z 27002KT 15/04 A3035 RMK A01 T01470036  RH  047%=      5-min Rain = 0
KDC1 291836Z 27003KT 15/04 A3035 RMK A01 T01470037  RH  048%=      5-min Rain = 0
KDC1 291837Z 27003KT 15/03 A3035 RMK A01 T01470034  RH  047%=      5-min Rain = 0
KDC1 291838Z 28002KT 15/03 A3035 RMK A01 T01460034  RH  047%=      5-min Rain = 0
KDC1 291839Z 27003KT 15/03 A3035 RMK A01 T01450034  RH  047%=      5-min Rain = 0
KDC1 291840Z 25004KT 15/04 A3035 RMK A01 T01460035  RH  047%=      5-min Rain = 0
KDC1 291841Z 26004KT 15/03 A3035 RMK A01 T01470029  RH  045%=      5-min Rain = 0
KDC1 291842Z 28002KT 15/03 A3035 RMK A01 T01450027  RH  045%=      5-min Rain = 0
KDC1 291843Z 29002KT 14/03 A3034 RMK A01 T01440027  RH  045%=      5-min Rain = 0
KDC1 291844Z 30001KT 15/03 A3034 RMK A01 T01450028  RH  045%=      5-min Rain = 0
KDC1 291845Z 27001KT 15/03 A3034 RMK A01 T01450028  RH  045%=      5-min Rain = 0
KDC1 291846Z 28002KT 15/03 A3034 RMK A01 T01470025  RH  044%=      5-min Rain = 0
KDC1 291847Z 11000KT 15/03 A3034 RMK A01 T01490026  RH  044%=      5-min Rain = 0
KDC1 291848Z 13002KT 15/03 A3034 RMK A01 T01520030  RH  044%=      5-min Rain = 0
KDC1 291849Z 15003KT 16/03 A3034 RMK A01 T01550034  RH  044%=      5-min Rain = 0
KDC1 291850Z 17003KT 16/04 A3034 RMK A01 T01570035  RH  044%=      5-min Rain = 0
KDC1 291851Z 17003KT 16/03 A3034 RMK A01 T01570033  RH  043%=      5-min Rain = 0
KDC1 291852Z 16002KT 16/03 A3034 RMK A01 T01570028  RH  042%=      5-min Rain = 0
KDC1 291853Z 22002KT 16/03 A3034 RMK A01 T01570029  RH  042%=      5-min Rain = 0
KDC1 291854Z 25002KT 16/03 A3034 RMK A01 T01570025  RH  041%=      5-min Rain = 0
KDC1 291855Z 25004KT 16/02 A3034 RMK A01 T01570023  RH  041%=      5-min Rain = 0
KDC1 291856Z 27004KT 16/02 A3034 RMK A01 T01550019  RH  040%=      5-min Rain = 0
KDC1 291857Z 28005KT 15/02 A3034 RMK A01 T01530020  RH  041%=      5-min Rain = 0
KDC1 291858Z 27004KT 15/02 A3034 RMK A01 T01520022  RH  041%=      5-min Rain = 0
KDC1 291859Z 28005KT 15/02 A3034 RMK A01 T01520023  RH  042%=      5-min Rain = 0
KDC1 291900Z 29005KT 15/02 A3034 RMK A01 T01520022  RH  041%=      5-min Rain = 0
KDC1 291901Z 29005KT 15/02 A3034 RMK A01 T01520019  RH  041%=      5-min Rain = 0
KDC1 291902Z 27003KT 15/02 A3034 RMK A01 T01520022  RH  041%=      5-min Rain = 0
KDC1 291903Z 28002KT 15/03 A3033 RMK A01 T01540025  RH  042%=      5-min Rain = 0
KDC1 291904Z 28004KT 16/03 A3033 RMK A01 T01560025  RH  041%=      5-min Rain = 0
KDC1 291905Z 29002KT 16/02 A3033 RMK A01 T01560022  RH  040%=      5-min Rain = 0
KDC1 291906Z 28002KT 16/02 A3033 RMK A01 T01550021  RH  040%=      5-min Rain = 0
KDC1 291907Z 27001KT 16/02 A3033 RMK A01 T01550022  RH  041%=      5-min Rain = 0
KDC1 291908Z 28001KT 16/03 A3033 RMK A01 T01570027  RH  042%=      5-min Rain = 0
KDC1 291909Z 20001KT 16/03 A3033 RMK A01 T01600027  RH  041%=      5-min Rain = 0
KDC1 291910Z 23002KT 16/02 A3033 RMK A01 T01620024  RH  039%=      5-min Rain = 0
KDC1 291911Z 22002KT 16/02 A3033 RMK A01 T01630023  RH  039%=      5-min Rain = 0
KDC1 291912Z 19004KT 16/02 A3033 RMK A01 T01630020  RH  038%=      5-min Rain = 0
KDC1 291913Z 19002KT 16/02 A3033 RMK A01 T01620020  RH  038%=      5-min Rain = 0
KDC1 291914Z 24003KT 16/02 A3033 RMK A01 T01610021  RH  039%=      5-min Rain = 0
KDC1 291915Z 25004KT 16/02 A3033 RMK A01 T01610020  RH  039%=      5-min Rain = 0
KDC1 291916Z 26003KT 16/02 A3033 RMK A01 T01580017  RH  039%=      5-min Rain = 0
KDC1 291917Z 28004KT 16/02 A3033 RMK A01 T01570021  RH  040%=      5-min Rain = 0
KDC1 291918Z 26004KT 16/02 A3032 RMK A01 T01570018  RH  039%=      5-min Rain = 0
KDC1 291919Z 23003KT 16/02 A3032 RMK A01 T01560020  RH  040%=      5-min Rain = 0
KDC1 291920Z 19004KT 16/02 A3032 RMK A01 T01580020  RH  039%=      5-min Rain = 0
KDC1 291921Z 19003KT 16/02 A3032 RMK A01 T01580019  RH  039%=      5-min Rain = 0
KDC1 291922Z 24002KT 16/02 A3032 RMK A01 T01590024  RH  040%=      5-min Rain = 0
KDC1 291923Z 27002KT 16/02 A3032 RMK A01 T01610020  RH  039%=      5-min Rain = 0
KDC1 291924Z 29003KT 16/02 A3032 RMK A01 T01610018  RH  038%=      5-min Rain = 0
KDC1 291925Z 28004KT 16/02 A3032 RMK A01 T01600019  RH  039%=      5-min Rain = 0
KDC1 291926Z 26005KT 16/02 A3032 RMK A01 T01600023  RH  040%=      5-min Rain = 0
KDC1 291927Z 21003KT 16/02 A3032 RMK A01 T01610021  RH  039%=      5-min Rain = 0
KDC1 291928Z 18002KT 16/02 A3032 RMK A01 T01610017  RH  038%=      5-min Rain = 0
KDC1 291929Z 21002KT 16/02 A3032 RMK A01 T01610018  RH  038%=      5-min Rain = 0
KDC1 291930Z 24002KT 16/02 A3032 RMK A01 T01630019  RH  038%=      5-min Rain = 0
KDC1 291931Z 22002KT 16/02 A3032 RMK A01 T01640019  RH  038%=      5-min Rain = 0
KDC1 291932Z 23003KT 17/02 A3032 RMK A01 T01650019  RH  037%=      5-min Rain = 0
KDC1 291933Z 19004KT 17/02 A3032 RMK A01 T01660023  RH  038%=      5-min Rain = 0
KDC1 291934Z 18004KT 17/02 A3032 RMK A01 T01670020  RH  037%=      5-min Rain = 0
KDC1 291935Z 19003KT 17/02 A3031 RMK A01 T01650019  RH  037%=      5-min Rain = 0
KDC1 291936Z 18002KT 16/02 A3031 RMK A01 T01640018  RH  038%=      5-min Rain = 0
KDC1 291937Z 24003KT 17/02 A3031 RMK A01 T01650023  RH  038%=      5-min Rain = 0
KDC1 291938Z 25002KT 17/03 A3031 RMK A01 T01680025  RH  038%=      5-min Rain = 0
KDC1 291939Z 25003KT 17/02 A3031 RMK A01 T01690021  RH  037%=      5-min Rain = 0
KDC1 291940Z 26001KT 17/02 A3031 RMK A01 T01690023  RH  037%=      5-min Rain = 0
KDC1 291941Z 23002KT 17/02 A3031 RMK A01 T01690021  RH  037%=      5-min Rain = 0
KDC1 291942Z 16001KT 17/02 A3031 RMK A01 T01690021  RH  037%=      5-min Rain = 0
KDC1 291943Z 20002KT 17/02 A3031 RMK A01 T01690022  RH  037%=      5-min Rain = 0
KDC1 291944Z 23005KT 17/02 A3031 RMK A01 T01700021  RH  037%=      5-min Rain = 0
KDC1 291945Z 22004KT 17/02 A3031 RMK A01 T01690021  RH  037%=      5-min Rain = 0
KDC1 291946Z 23002KT 17/02 A3031 RMK A01 T01690020  RH  037%=      5-min Rain = 0
KDC1 291947Z 26003KT 17/02 A3031 RMK A01 T01690019  RH  036%=      5-min Rain = 0
KDC1 291948Z 23006KT 17/02 A3031 RMK A01 T01670018  RH  037%=      5-min Rain = 0
KDC1 291949Z 21004KT 17/02 A3031 RMK A01 T01660019  RH  037%=      5-min Rain = 0
KDC1 291950Z 23003KT 17/02 A3031 RMK A01 T01660019  RH  037%=      5-min Rain = 0
KDC1 291951Z 24003KT 17/02 A3031 RMK A01 T01660020  RH  037%=      5-min Rain = 0
KDC1 291952Z 22003KT 17/02 A3031 RMK A01 T01670020  RH  037%=      5-min Rain = 0
KDC1 291953Z 26003KT 17/02 A3031 RMK A01 T01680019  RH  037%=      5-min Rain = 0
KDC1 291954Z 27004KT 17/02 A3031 RMK A01 T01690023  RH  037%=      5-min Rain = 0
KDC1 291955Z 23004KT 17/02 A3031 RMK A01 T01710024  RH  037%=      5-min Rain = 0
KDC1 291956Z 20003KT 17/02 A3031 RMK A01 T01720024  RH  037%=      5-min Rain = 0
KDC1 291957Z 20002KT 17/02 A3031 RMK A01 T01730022  RH  036%=      5-min Rain = 0
KDC1 291958Z 20002KT 17/02 A303 RMK A01 T01730019  RH  035%=      5-min Rain = 0
KDC1 291959Z 28004KT 17/02 A303 RMK A01 T01730021  RH  036%=      5-min Rain = 0
KDC1 292000Z 28003KT 17/02 A303 RMK A01 T01730020  RH  036%=      5-min Rain = 0
KDC1 292001Z 27004KT 17/02 A303 RMK A01 T01700019  RH  036%=      5-min Rain = 0
KDC1 292002Z 28005KT 17/02 A303 RMK A01 T01700020  RH  036%=      5-min Rain = 0
KDC1 292003Z 24005KT 17/02 A303 RMK A01 T01680020  RH  037%=      5-min Rain = 0
KDC1 292004Z 21002KT 17/02 A303 RMK A01 T01700024  RH  037%=      5-min Rain = 0
KDC1 292005Z 24006KT 17/02 A303 RMK A01 T01740023  RH  036%=      5-min Rain = 0
KDC1 292006Z 24008KT 17/02 A303 RMK A01 T01730019  RH  036%=      5-min Rain = 0
KDC1 292007Z 22005KT 17/02 A303 RMK A01 T01720018  RH  035%=      5-min Rain = 0
KDC1 292008Z 22005KT 17/02 A303 RMK A01 T01700015  RH  035%=      5-min Rain = 0
KDC1 292009Z 24004KT 17/02 A303 RMK A01 T01700016  RH  036%=      5-min Rain = 0
KDC1 292010Z 24004KT 17/01 A303 RMK A01 T01690014  RH  035%=      5-min Rain = 0
KDC1 292011Z 26003KT 17/01 A303 RMK A01 T01670013  RH  035%=      5-min Rain = 0
KDC1 292012Z 27004KT 17/02 A303 RMK A01 T01660015  RH  036%=      5-min Rain = 0
KDC1 292013Z 27002KT 17/01 A303 RMK A01 T01650014  RH  036%=      5-min Rain = 0
KDC1 292014Z 25005KT 17/02 A303 RMK A01 T01660018  RH  037%=      5-min Rain = 0
KDC1 292015Z 25004KT 17/01 A303 RMK A01 T01670014  RH  036%=      5-min Rain = 0
KDC1 292016Z 25004KT 17/02 A303 RMK A01 T01670016  RH  036%=      5-min Rain = 0
KDC1 292017Z 26005KT 17/02 A303 RMK A01 T01680019  RH  036%=      5-min Rain = 0
KDC1 292018Z 27003KT 17/01 A303 RMK A01 T01690014  RH  035%=      5-min Rain = 0
KDC1 292019Z 26002KT 17/01 A303 RMK A01 T01670013  RH  035%=      5-min Rain = 0
KDC1 292020Z 26003KT 17/02 A303 RMK A01 T01670016  RH  036%=      5-min Rain = 0
KDC1 292021Z 26003KT 17/02 A303 RMK A01 T01690016  RH  036%=      5-min Rain = 0
KDC1 292022Z 26003KT 17/02 A3029 RMK A01 T01700016  RH  036%=      5-min Rain = 0
KDC1 292023Z 29002KT 17/02 A3029 RMK A01 T01700015  RH  035%=      5-min Rain = 0
KDC1 292024Z 30003KT 17/02 A3029 RMK A01 T01700016  RH  035%=      5-min Rain = 0
KDC1 292025Z 28003KT 17/02 A3029 RMK A01 T01690015  RH  035%=      5-min Rain = 0
KDC1 292026Z 25005KT 17/02 A3029 RMK A01 T01690016  RH  036%=      5-min Rain = 0
KDC1 292027Z 27005KT 17/02 A3029 RMK A01 T01690015  RH  035%=      5-min Rain = 0
KDC1 292028Z 26005KT 17/02 A3029 RMK A01 T01690017  RH  036%=      5-min Rain = 0
KDC1 292029Z 26004KT 17/02 A3029 RMK A01 T01700017  RH  036%=      5-min Rain = 0
KDC1 292030Z 26006KT 17/02 A3029 RMK A01 T01700017  RH  036%=      5-min Rain = 0
KDC1 292031Z 22003KT 17/02 A3029 RMK A01 T01710018  RH  036%=      5-min Rain = 0
KDC1 292032Z 20003KT 17/02 A3029 RMK A01 T01720017  RH  035%=      5-min Rain = 0
KDC1 292033Z 20001KT 17/02 A3029 RMK A01 T01730015  RH  034%=      5-min Rain = 0
KDC1 292034Z 28003KT 17/02 A3029 RMK A01 T01730016  RH  035%=      5-min Rain = 0
KDC1 292035Z 29003KT 17/02 A3029 RMK A01 T01740016  RH  035%=      5-min Rain = 0
KDC1 292036Z 28003KT 17/02 A3029 RMK A01 T01740016  RH  035%=      5-min Rain = 0
KDC1 292037Z 27002KT 17/02 A3029 RMK A01 T01730017  RH  035%=      5-min Rain = 0
KDC1 292038Z 26003KT 17/02 A3029 RMK A01 T01730017  RH  035%=      5-min Rain = 0
KDC1 292039Z 25003KT 18/02 A3029 RMK A01 T01750016  RH  034%=      5-min Rain = 0
KDC1 292040Z 25004KT 17/02 A3029 RMK A01 T01740015  RH  034%=      5-min Rain = 0
KDC1 292041Z 26002KT 17/02 A3029 RMK A01 T01740015  RH  034%=      5-min Rain = 0
KDC1 292042Z 28001KT 17/01 A3029 RMK A01 T01730014  RH  034%=      5-min Rain = 0
KDC1 292043Z 26002KT 17/01 A3029 RMK A01 T01730013  RH  034%=      5-min Rain = 0
KDC1 292044Z 24005KT 17/02 A3029 RMK A01 T01740017  RH  035%=      5-min Rain = 0
KDC1 292045Z 26006KT 18/02 A3029 RMK A01 T01750018  RH  035%=      5-min Rain = 0
KDC1 292046Z 25006KT 18/02 A3029 RMK A01 T01750017  RH  035%=      5-min Rain = 0
KDC1 292047Z 27004KT 18/02 A3029 RMK A01 T01750016  RH  034%=      5-min Rain = 0
KDC1 292048Z 28006KT 17/02 A3029 RMK A01 T01740016  RH  034%=      5-min Rain = 0
KDC1 292049Z 25009KT 17/02 A3028 RMK A01 T01740017  RH  035%=      5-min Rain = 0
KDC1 292050Z 16006KT 17/02 A3029 RMK A01 T01740017  RH  035%=      5-min Rain = 0
KDC1 292051Z 17004KT 17/02 A3029 RMK A01 T01740015  RH  034%=      5-min Rain = 0
KDC1 292052Z 20004KT 17/01 A3029 RMK A01 T01730013  RH  034%=      5-min Rain = 0
KDC1 292053Z 19003KT 17/02 A3029 RMK A01 T01720015  RH  035%=      5-min Rain = 0
KDC1 292054Z 16001KT 17/02 A3029 RMK A01 T01740016  RH  034%=      5-min Rain = 0
KDC1 292055Z 25002KT 18/02 A3029 RMK A01 T01760018  RH  035%=      5-min Rain = 0
KDC1 292056Z 17003KT 18/02 A3029 RMK A01 T01790019  RH  034%=      5-min Rain = 0
KDC1 292057Z 15002KT 18/02 A3029 RMK A01 T01790016  RH  034%=      5-min Rain = 0
KDC1 292058Z 22002KT 18/02 A3029 RMK A01 T01790018  RH  034%=      5-min Rain = 0
KDC1 292059Z 22004KT 18/02 A3029 RMK A01 T01810019  RH  034%=      5-min Rain = 0
KDC1 292100Z 19003KT 18/02 A3029 RMK A01 T01820016  RH  033%=      5-min Rain = 0
KDC1 292101Z 16003KT 18/02 A3029 RMK A01 T01810018  RH  034%=      5-min Rain = 0
KDC1 292102Z 20003KT 18/02 A3029 RMK A01 T01800015  RH  033%=      5-min Rain = 0
KDC1 292103Z 19004KT 18/01 A3029 RMK A01 T01790012  RH  033%=      5-min Rain = 0
KDC1 292104Z 21002KT 18/01 A3029 RMK A01 T01780013  RH  033%=      5-min Rain = 0
KDC1 292105Z 24004KT 18/02 A3029 RMK A01 T01790015  RH  033%=      5-min Rain = 0
KDC1 292106Z 23004KT 18/01 A3029 RMK A01 T01790013  RH  033%=      5-min Rain = 0
KDC1 292107Z 19004KT 18/01 A3029 RMK A01 T01780014  RH  033%=      5-min Rain = 0
KDC1 292108Z 20004KT 18/01 A3029 RMK A01 T01780014  RH  033%=      5-min Rain = 0
KDC1 292109Z 21003KT 18/01 A3029 RMK A01 T01780013  RH  033%=      5-min Rain = 0
KDC1 292110Z 18004KT 18/01 A3029 RMK A01 T01780014  RH  033%=      5-min Rain = 0
KDC1 292111Z 19004KT 18/01 A3029 RMK A01 T01790013  RH  033%=      5-min Rain = 0
KDC1 292112Z 20003KT 18/02 A3029 RMK A01 T01790016  RH  034%=      5-min Rain = 0
KDC1 292113Z 21002KT 18/02 A3029 RMK A01 T01800017  RH  034%=      5-min Rain = 0
KDC1 292114Z 23004KT 18/02 A3029 RMK A01 T01820018  RH  033%=      5-min Rain = 0
KDC1 292115Z 24003KT 18/01 A3029 RMK A01 T01830014  RH  032%=      5-min Rain = 0
KDC1 292116Z 23003KT 18/02 A3029 RMK A01 T01830017  RH  033%=      5-min Rain = 0
KDC1 292117Z 22004KT 18/01 A3029 RMK A01 T01820014  RH  032%=      5-min Rain = 0
KDC1 292118Z 23004KT 18/01 A3029 RMK A01 T01810011  RH  032%=      5-min Rain = 0
KDC1 292119Z 24002KT 18/01 A3029 RMK A01 T01800010  RH  032%=      5-min Rain = 0
KDC1 292120Z 23003KT 18/01 A3029 RMK A01 T01780010  RH  032%=      5-min Rain = 0
KDC1 292121Z 24003KT 18/01 A3029 RMK A01 T01770009  RH  032%=      5-min Rain = 0
KDC1 292122Z 24004KT 18/01 A3029 RMK A01 T01770010  RH  033%=      5-min Rain = 0
KDC1 292123Z 21005KT 18/01 A3028 RMK A01 T01780012  RH  033%=      5-min Rain = 0
KDC1 292124Z 20004KT 18/01 A3029 RMK A01 T01790011  RH  032%=      5-min Rain = 0
KDC1 292125Z 20005KT 18/01 A3029 RMK A01 T01780008  RH  032%=      5-min Rain = 0
KDC1 292126Z 21005KT 18/01 A3029 RMK A01 T01760008  RH  032%=      5-min Rain = 0
KDC1 292127Z 22003KT 18/01 A3029 RMK A01 T01750008  RH  032%=      5-min Rain = 0
KDC1 292128Z 24002KT 18/01 A3029 RMK A01 T01750008  RH  032%=      5-min Rain = 0
KDC1 292129Z 19001KT 18/01 A3029 RMK A01 T01760009  RH  033%=      5-min Rain = 0
KDC1 292130Z 18002KT 18/01 A3028 RMK A01 T01770009  RH  032%=      5-min Rain = 0
KDC1 292131Z 17002KT 18/01 A3028 RMK A01 T01780010  RH  032%=      5-min Rain = 0
KDC1 292132Z 18001KT 18/01 A3028 RMK A01 T01790012  RH  032%=      5-min Rain = 0
KDC1 292133Z 22002KT 18/01 A3028 RMK A01 T01800013  RH  033%=      5-min Rain = 0
KDC1 292134Z 22003KT 18/01 A3028 RMK A01 T01810012  RH  032%=      5-min Rain = 0
KDC1 292135Z 26002KT 18/01 A3028 RMK A01 T01810010  RH  032%=      5-min Rain = 0
KDC1 292136Z 28003KT 18/01 A3028 RMK A01 T01800011  RH  032%=      5-min Rain = 0
KDC1 292137Z 30003KT 18/01 A3028 RMK A01 T01790008  RH  032%=      5-min Rain = 0
KDC1 292138Z 31002KT 18/01 A3028 RMK A01 T01770009  RH  032%=      5-min Rain = 0
KDC1 292139Z 28002KT 18/01 A3028 RMK A01 T01770010  RH  032%=      5-min Rain = 0
KDC1 292140Z 30000KT 18/01 A3028 RMK A01 T01770010  RH  032%=      5-min Rain = 0
KDC1 292141Z 22000KT 18/01 A3028 RMK A01 T01780009  RH  032%=      5-min Rain = 0
KDC1 292142Z 22001KT 18/01 A3028 RMK A01 T01810013  RH  032%=      5-min Rain = 0
KDC1 292143Z 21001KT 18/01 A3028 RMK A01 T01830009  RH  031%=      5-min Rain = 0
KDC1 292144Z 14001KT 18/01 A3028 RMK A01 T01830011  RH  031%=      5-min Rain = 0
KDC1 292145Z 17001KT 18/02 A3028 RMK A01 T01840016  RH  032%=      5-min Rain = 0
KDC1 292146Z 14001KT 18/01 A3028 RMK A01 T01840012  RH  031%=      5-min Rain = 0
KDC1 292147Z 17005KT 18/02 A3028 RMK A01 T01840015  RH  032%=      5-min Rain = 0
KDC1 292148Z 17005KT 18/02 A3028 RMK A01 T01830015  RH  032%=      5-min Rain = 0
KDC1 292149Z 18004KT 18/02 A3028 RMK A01 T01830015  RH  032%=      5-min Rain = 0
KDC1 292150Z 18004KT 18/01 A3028 RMK A01 T01820014  RH  032%=      5-min Rain = 0
KDC1 292151Z 16004KT 18/01 A3028 RMK A01 T01810012  RH  032%=      5-min Rain = 0
KDC1 292152Z 16003KT 18/01 A3028 RMK A01 T01810012  RH  032%=      5-min Rain = 0
KDC1 292153Z 15007KT 18/02 A3028 RMK A01 T01810015  RH  033%=      5-min Rain = 0
KDC1 292154Z 15006KT 18/02 A3028 RMK A01 T01810016  RH  033%=      5-min Rain = 0
KDC1 292155Z 16005KT 18/01 A3028 RMK A01 T01810012  RH  032%=      5-min Rain = 0
KDC1 292156Z 16003KT 18/01 A3028 RMK A01 T01800011  RH  032%=      5-min Rain = 0
KDC1 292157Z 15002KT 18/01 A3028 RMK A01 T01800009  RH  032%=      5-min Rain = 0
KDC1 292158Z 16003KT 18/01 A3028 RMK A01 T01800009  RH  032%=      5-min Rain = 0
KDC1 292159Z 18002KT 18/01 A3028 RMK A01 T01800013  RH  033%=      5-min Rain = 0
KDC1 292200Z 17002KT 18/01 A3028 RMK A01 T01810009  RH  031%=      5-min Rain = 0
KDC1 292201Z 12001KT 18/01 A3028 RMK A01 T01810009  RH  031%=      5-min Rain = 0
KDC1 292202Z 14002KT 18/01 A3028 RMK A01 T01820011  RH  032%=      5-min Rain = 0
KDC1 292203Z 16002KT 18/01 A3028 RMK A01 T01820012  RH  032%=      5-min Rain = 0
KDC1 292204Z 17002KT 18/01 A3028 RMK A01 T01830014  RH  032%=      5-min Rain = 0
KDC1 292205Z 16003KT 18/01 A3028 RMK A01 T01830014  RH  032%=      5-min Rain = 0
KDC1 292206Z 16003KT 18/01 A3028 RMK A01 T01830011  RH  032%=      5-min Rain = 0
KDC1 292207Z 16002KT 18/01 A3028 RMK A01 T01830011  RH  031%=      5-min Rain = 0
KDC1 292208Z 16002KT 18/01 A3028 RMK A01 T01830008  RH  031%=      5-min Rain = 0
KDC1 292209Z 16003KT 18/01 A3028 RMK A01 T01830009  RH  031%=      5-min Rain = 0
KDC1 292210Z 16002KT 18/01 A3028 RMK A01 T01820010  RH  031%=      5-min Rain = 0
KDC1 292211Z 16002KT 18/01 A3028 RMK A01 T01830011  RH  032%=      5-min Rain = 0
KDC1 292212Z 20002KT 18/01 A3028 RMK A01 T01830011  RH  032%=      5-min Rain = 0
KDC1 292213Z 21003KT 18/01 A3028 RMK A01 T01830009  RH  031%=      5-min Rain = 0
KDC1 292214Z 24002KT 18/01 A3028 RMK A01 T01820009  RH  031%=      5-min Rain = 0
KDC1 292215Z 20003KT 18/01 A3028 RMK A01 T01820012  RH  032%=      5-min Rain = 0
KDC1 292216Z 20002KT 18/01 A3028 RMK A01 T01810014  RH  032%=      5-min Rain = 0
KDC1 292217Z 13002KT 18/02 A3028 RMK A01 T01820015  RH  033%=      5-min Rain = 0
KDC1 292218Z 15002KT 18/02 A3028 RMK A01 T01830017  RH  033%=      5-min Rain = 0
KDC1 292219Z 16004KT 18/02 A3028 RMK A01 T01830020  RH  034%=      5-min Rain = 0
KDC1 292220Z 19004KT 18/02 A3028 RMK A01 T01830017  RH  033%=      5-min Rain = 0
KDC1 292221Z 16004KT 18/02 A3028 RMK A01 T01820016  RH  033%=      5-min Rain = 0
KDC1 292222Z 17004KT 18/02 A3028 RMK A01 T01820021  RH  034%=      5-min Rain = 0
KDC1 292223Z 17005KT 18/02 A3028 RMK A01 T01820020  RH  034%=      5-min Rain = 0
KDC1 292224Z 16004KT 18/02 A3028 RMK A01 T01810018  RH  034%=      5-min Rain = 0
KDC1 292225Z 15007KT 18/02 A3028 RMK A01 T01810020  RH  034%=      5-min Rain = 0
KDC1 292226Z 15005KT 18/02 A3028 RMK A01 T01800019  RH  034%=      5-min Rain = 0
KDC1 292227Z 15006KT 18/02 A3028 RMK A01 T01790020  RH  034%=      5-min Rain = 0
KDC1 292228Z 16005KT 18/02 A3028 RMK A01 T01790016  RH  034%=      5-min Rain = 0
KDC1 292229Z 16005KT 18/02 A3028 RMK A01 T01770016  RH  034%=      5-min Rain = 0
KDC1 292230Z 16004KT 18/02 A3027 RMK A01 T01770020  RH  035%=      5-min Rain = 0
KDC1 292231Z 15004KT 18/02 A3027 RMK A01 T01770019  RH  035%=      5-min Rain = 0
KDC1 292232Z 15004KT 18/03 A3027 RMK A01 T01780027  RH  036%=      5-min Rain = 0
KDC1 292233Z 15006KT 18/03 A3027 RMK A01 T01780027  RH  036%=      5-min Rain = 0
KDC1 292234Z 15006KT 18/02 A3027 RMK A01 T01770023  RH  035%=      5-min Rain = 0
KDC1 292235Z 16006KT 18/02 A3027 RMK A01 T01770022  RH  035%=      5-min Rain = 0
KDC1 292236Z 15006KT 18/02 A3027 RMK A01 T01760020  RH  035%=      5-min Rain = 0
KDC1 292237Z 15006KT 18/02 A3027 RMK A01 T01750023  RH  036%=      5-min Rain = 0
KDC1 292238Z 16006KT 18/03 A3027 RMK A01 T01750026  RH  037%=      5-min Rain = 0
KDC1 292239Z 16005KT 17/02 A3027 RMK A01 T01740024  RH  036%=      5-min Rain = 0
KDC1 292240Z 16006KT 17/02 A3027 RMK A01 T01730023  RH  036%=      5-min Rain = 0
KDC1 292241Z 15006KT 17/02 A3027 RMK A01 T01720024  RH  037%=      5-min Rain = 0
KDC1 292242Z 15006KT 17/02 A3027 RMK A01 T01710020  RH  036%=      5-min Rain = 0
KDC1 292243Z 16006KT 17/02 A3027 RMK A01 T01700022  RH  037%=      5-min Rain = 0
KDC1 292244Z 15005KT 17/02 A3027 RMK A01 T01700023  RH  037%=      5-min Rain = 0
KDC1 292245Z 15005KT 17/02 A3027 RMK A01 T01700024  RH  038%=      5-min Rain = 0
KDC1 292246Z 15005KT 17/02 A3027 RMK A01 T01710023  RH  037%=      5-min Rain = 0
KDC1 292247Z 15005KT 17/03 A3027 RMK A01 T01720026  RH  038%=      5-min Rain = 0
KDC1 292248Z 15006KT 17/03 A3027 RMK A01 T01720025  RH  037%=      5-min Rain = 0
KDC1 292249Z 15006KT 17/03 A3027 RMK A01 T01730025  RH  037%=      5-min Rain = 0
KDC1 292250Z 15005KT 17/02 A3027 RMK A01 T01730021  RH  036%=      5-min Rain = 0
KDC1 292251Z 15006KT 17/02 A3027 RMK A01 T01730020  RH  036%=      5-min Rain = 0
KDC1 292252Z 15006KT 17/02 A3027 RMK A01 T01720019  RH  036%=      5-min Rain = 0
KDC1 292253Z 15006KT 17/02 A3027 RMK A01 T01730022  RH  036%=      5-min Rain = 0
KDC1 292254Z 14005KT 17/03 A3027 RMK A01 T01730026  RH  037%=      5-min Rain = 0
KDC1 292255Z 15005KT 17/03 A3027 RMK A01 T01730028  RH  038%=      5-min Rain = 0
KDC1 292256Z 15006KT 17/03 A3027 RMK A01 T01740028  RH  038%=      5-min Rain = 0
KDC1 292257Z 15007KT 17/03 A3027 RMK A01 T01730025  RH  037%=      5-min Rain = 0
KDC1 292258Z 15006KT 17/03 A3027 RMK A01 T01730025  RH  037%=      5-min Rain = 0
KDC1 292259Z 15006KT 17/02 A3027 RMK A01 T01730020  RH  036%=      5-min Rain = 0
KDC1 292300Z 15007KT 17/02 A3027 RMK A01 T01720022  RH  036%=      5-min Rain = 0
KDC1 292301Z 15007KT 17/02 A3027 RMK A01 T01710018  RH  036%=      5-min Rain = 0
KDC1 292302Z 15006KT 17/02 A3027 RMK A01 T01700018  RH  036%=      5-min Rain = 0
KDC1 292303Z 15006KT 17/03 A3027 RMK A01 T01700025  RH  038%=      5-min Rain = 0
KDC1 292304Z 16006KT 17/02 A3027 RMK A01 T01700023  RH  037%=      5-min Rain = 0
KDC1 292305Z 16006KT 17/02 A3027 RMK A01 T01710022  RH  037%=      5-min Rain = 0
KDC1 292306Z 15006KT 17/02 A3027 RMK A01 T01710022  RH  037%=      5-min Rain = 0
KDC1 292307Z 16005KT 17/02 A3027 RMK A01 T01710023  RH  037%=      5-min Rain = 0
KDC1 292308Z 16005KT 17/02 A3027 RMK A01 T01720022  RH  037%=      5-min Rain = 0
KDC1 292309Z 16005KT 17/02 A3027 RMK A01 T01720020  RH  036%=      5-min Rain = 0
KDC1 292310Z 16004KT 17/02 A3027 RMK A01 T01720021  RH  036%=      5-min Rain = 0
KDC1 292311Z 16004KT 17/03 A3027 RMK A01 T01730025  RH  037%=      5-min Rain = 0
KDC1 292312Z 16005KT 17/02 A3027 RMK A01 T01730021  RH  036%=      5-min Rain = 0
KDC1 292313Z 16004KT 17/02 A3027 RMK A01 T01720020  RH  036%=      5-min Rain = 0
KDC1 292314Z 15005KT 17/02 A3027 RMK A01 T01730024  RH  037%=      5-min Rain = 0
KDC1 292315Z 16005KT 17/03 A3027 RMK A01 T01730025  RH  037%=      5-min Rain = 0
KDC1 292316Z 18004KT 17/02 A3027 RMK A01 T01730021  RH  036%=      5-min Rain = 0
KDC1 292317Z 15005KT 17/02 A3027 RMK A01 T01730022  RH  036%=      5-min Rain = 0
KDC1 292318Z 15004KT 17/02 A3027 RMK A01 T01720019  RH  036%=      5-min Rain = 0
KDC1 292319Z 15005KT 17/02 A3027 RMK A01 T01720020  RH  036%=      5-min Rain = 0
KDC1 292320Z 15004KT 17/02 A3027 RMK A01 T01720021  RH  036%=      5-min Rain = 0
KDC1 292321Z 16004KT 17/03 A3027 RMK A01 T01710026  RH  038%=      5-min Rain = 0
KDC1 292322Z 16004KT 17/03 A3027 RMK A01 T01710027  RH  038%=      5-min Rain = 0
KDC1 292323Z 15004KT 17/03 A3027 RMK A01 T01710028  RH  038%=      5-min Rain = 0
KDC1 292324Z 15003KT 17/03 A3027 RMK A01 T01710031  RH  039%=      5-min Rain = 0
KDC1 292325Z 17002KT 17/03 A3027 RMK A01 T01710029  RH  039%=      5-min Rain = 0
KDC1 292326Z 17003KT 17/03 A3027 RMK A01 T01710025  RH  038%=      5-min Rain = 0
KDC1 292327Z 17004KT 17/02 A3027 RMK A01 T01710024  RH  037%=      5-min Rain = 0
KDC1 292328Z 16004KT 17/03 A3027 RMK A01 T01710025  RH  037%=      5-min Rain = 0
KDC1 292329Z 17004KT 17/03 A3027 RMK A01 T01710029  RH  038%=      5-min Rain = 0
KDC1 292330Z 17004KT 17/03 A3027 RMK A01 T01700030  RH  039%=      5-min Rain = 0
KDC1 292331Z 17005KT 17/03 A3027 RMK A01 T01700027  RH  038%=      5-min Rain = 0
KDC1 292332Z 16005KT 17/03 A3027 RMK A01 T01700026  RH  038%=      5-min Rain = 0
KDC1 292333Z 17004KT 17/03 A3027 RMK A01 T01700025  RH  038%=      5-min Rain = 0
KDC1 292334Z 16005KT 17/03 A3027 RMK A01 T01690027  RH  039%=      5-min Rain = 0
KDC1 292335Z 16005KT 17/03 A3027 RMK A01 T01680026  RH  038%=      5-min Rain = 0
KDC1 292336Z 16005KT 17/03 A3027 RMK A01 T01680027  RH  039%=      5-min Rain = 0
KDC1 292337Z 16004KT 17/03 A3027 RMK A01 T01670028  RH  039%=      5-min Rain = 0
KDC1 292338Z 16004KT 17/03 A3027 RMK A01 T01660029  RH  040%=      5-min Rain = 0
KDC1 292339Z 16003KT 17/03 A3027 RMK A01 T01660032  RH  041%=      5-min Rain = 0
KDC1 292340Z 16004KT 17/03 A3027 RMK A01 T01650033  RH  041%=      5-min Rain = 0
KDC1 292341Z 16003KT 16/03 A3027 RMK A01 T01640033  RH  041%=      5-min Rain = 0
KDC1 292342Z 16003KT 16/04 A3027 RMK A01 T01630035  RH  042%=      5-min Rain = 0
KDC1 292343Z 15003KT 16/03 A3027 RMK A01 T01630034  RH  042%=      5-min Rain = 0
KDC1 292344Z 15003KT 16/03 A3027 RMK A01 T01620031  RH  042%=      5-min Rain = 0
KDC1 292345Z 16003KT 16/03 A3027 RMK A01 T01620031  RH  041%=      5-min Rain = 0
KDC1 292346Z 16003KT 16/03 A3027 RMK A01 T01610030  RH  041%=      5-min Rain = 0
KDC1 292347Z 16003KT 16/03 A3027 RMK A01 T01620031  RH  042%=      5-min Rain = 0
KDC1 292348Z 16003KT 16/03 A3027 RMK A01 T01610031  RH  042%=      5-min Rain = 0
KDC1 292349Z 16003KT 16/03 A3027 RMK A01 T01610032  RH  042%=      5-min Rain = 0
KDC1 292350Z 16003KT 16/03 A3027 RMK A01 T01610032  RH  042%=      5-min Rain = 0
KDC1 292351Z 16003KT 16/03 A3027 RMK A01 T01600030  RH  042%=      5-min Rain = 0
KDC1 292352Z 16003KT 16/03 A3027 RMK A01 T01600029  RH  041%=      5-min Rain = 0
KDC1 292353Z 16003KT 16/03 A3027 RMK A01 T01600029  RH  041%=      5-min Rain = 0
KDC1 292354Z 16003KT 16/03 A3027 RMK A01 T01600028  RH  041%=      5-min Rain = 0
KDC1 292355Z 16003KT 16/03 A3027 RMK A01 T01600029  RH  041%=      5-min Rain = 0
KDC1 292356Z 15003KT 16/03 A3027 RMK A01 T01590030  RH  042%=      5-min Rain = 0
KDC1 292357Z 16002KT 16/03 A3027 RMK A01 T01580031  RH  042%=      5-min Rain = 0
KDC1 292358Z 16002KT 16/03 A3027 RMK A01 T01570031  RH  043%=      5-min Rain = 0
KDC1 292359Z 16003KT 16/03 A3027 RMK A01 T01560030  RH  043%=      5-min Rain = 0
KDC1 300000Z 15003KT 16/03 A3027 RMK A01 T01560030  RH  043%=      5-min Rain = 0
KDC1 300001Z 16002KT 16/03 A3027 RMK A01 T01550029  RH  043%=      5-min Rain = 0
KDC1 300002Z 15003KT 15/03 A3027 RMK A01 T01540030  RH  044%=      5-min Rain = 0
KDC1 300003Z 15003KT 15/03 A3027 RMK A01 T01520030  RH  044%=      5-min Rain = 0
KDC1 300004Z 15002KT 15/03 A3027 RMK A01 T01510031  RH  045%=      5-min Rain = 0
KDC1 300005Z 15003KT 15/03 A3027 RMK A01 T01500032  RH  045%=      5-min Rain = 0
KDC1 300006Z 15002KT 15/03 A3027 RMK A01 T01490032  RH  045%=      5-min Rain = 0
KDC1 300007Z 15002KT 15/03 A3027 RMK A01 T01480033  RH  046%=      5-min Rain = 0
KDC1 300008Z 15002KT 15/03 A3027 RMK A01 T01470033  RH  046%=      5-min Rain = 0
KDC1 300009Z 15002KT 15/03 A3027 RMK A01 T01470033  RH  046%=      5-min Rain = 0
KDC1 300010Z 16002KT 15/03 A3027 RMK A01 T01460033  RH  047%=      5-min Rain = 0
KDC1 300011Z 16002KT 15/03 A3027 RMK A01 T01460032  RH  046%=      5-min Rain = 0
KDC1 300012Z 16001KT 15/03 A3027 RMK A01 T01450032  RH  047%=      5-min Rain = 0
KDC1 300013Z 16002KT 15/03 A3027 RMK A01 T01450032  RH  047%=      5-min Rain = 0
KDC1 300014Z 16002KT 14/03 A3028 RMK A01 T01440032  RH  047%=      5-min Rain = 0
KDC1 300015Z 16002KT 14/03 A3028 RMK A01 T01440032  RH  047%=      5-min Rain = 0
KDC1 300016Z 17002KT 14/03 A3028 RMK A01 T01430031  RH  047%=      5-min Rain = 0
KDC1 300017Z 16002KT 14/03 A3028 RMK A01 T01430031  RH  047%=      5-min Rain = 0
KDC1 300018Z 16002KT 14/03 A3028 RMK A01 T01430031  RH  047%=      5-min Rain = 0
KDC1 300019Z 16002KT 14/03 A3028 RMK A01 T01420029  RH  046%=      5-min Rain = 0
KDC1 300020Z 17002KT 14/03 A3028 RMK A01 T01430029  RH  046%=      5-min Rain = 0
KDC1 300021Z 16002KT 14/03 A3028 RMK A01 T01420029  RH  046%=      5-min Rain = 0
KDC1 300022Z 16002KT 14/03 A3028 RMK A01 T01420028  RH  046%=      5-min Rain = 0
KDC1 300023Z 16002KT 14/03 A3028 RMK A01 T01420027  RH  046%=      5-min Rain = 0
KDC1 300024Z 16002KT 14/03 A3028 RMK A01 T01420026  RH  046%=      5-min Rain = 0
KDC1 300025Z 16002KT 14/03 A3028 RMK A01 T01420027  RH  046%=      5-min Rain = 0
KDC1 300026Z 16002KT 14/03 A3028 RMK A01 T01420025  RH  045%=      5-min Rain = 0
KDC1 300027Z 15002KT 14/03 A3028 RMK A01 T01420025  RH  045%=      5-min Rain = 0
KDC1 300028Z 15002KT 14/03 A3028 RMK A01 T01410025  RH  045%=      5-min Rain = 0
KDC1 300029Z 15002KT 14/03 A3028 RMK A01 T01410028  RH  046%=      5-min Rain = 0
KDC1 300030Z 14002KT 14/03 A3028 RMK A01 T01400034  RH  049%=      5-min Rain = 0
KDC1 300031Z 14002KT 14/03 A3028 RMK A01 T01380033  RH  049%=      5-min Rain = 0
KDC1 300032Z 14001KT 14/03 A3028 RMK A01 T01360030  RH  049%=      5-min Rain = 0
KDC1 300033Z 14001KT 14/03 A3028 RMK A01 T01350028  RH  048%=      5-min Rain = 0
KDC1 300034Z 14001KT 13/03 A3028 RMK A01 T01340028  RH  049%=      5-min Rain = 0
KDC1 300035Z 14001KT 13/03 A3028 RMK A01 T01330029  RH  049%=      5-min Rain = 0
KDC1 300036Z 15001KT 13/03 A3028 RMK A01 T01330027  RH  049%=      5-min Rain = 0
KDC1 300037Z 15001KT 13/03 A3028 RMK A01 T01320026  RH  049%=      5-min Rain = 0
KDC1 300038Z 15001KT 13/03 A3028 RMK A01 T01320028  RH  049%=      5-min Rain = 0
KDC1 300039Z 15001KT 13/04 A3028 RMK A01 T01310037  RH  053%=      5-min Rain = 0
KDC1 300040Z 15001KT 13/04 A3028 RMK A01 T01290041  RH  055%=      5-min Rain = 0
KDC1 300041Z 15001KT 13/04 A3028 RMK A01 T01260041  RH  056%=      5-min Rain = 0
KDC1 300042Z 15001KT 13/04 A3028 RMK A01 T01250040  RH  056%=      5-min Rain = 0
KDC1 300043Z 15000KT 12/04 A3028 RMK A01 T01240041  RH  057%=      5-min Rain = 0
KDC1 300044Z 15000KT 12/04 A3028 RMK A01 T01220042  RH  058%=      5-min Rain = 0
KDC1 300045Z 15000KT 12/04 A3028 RMK A01 T01210041  RH  058%=      5-min Rain = 0
KDC1 300046Z 15000KT 12/04 A3028 RMK A01 T01200041  RH  059%=      5-min Rain = 0
KDC1 300047Z 15000KT 12/04 A3028 RMK A01 T01190043  RH  060%=      5-min Rain = 0
KDC1 300048Z 00000KT 12/04 A3028 RMK A01 T01170043  RH  061%=      5-min Rain = 0
KDC1 300049Z 00000KT 11/04 A3028 RMK A01 T01140043  RH  062%=      5-min Rain = 0
KDC1 300050Z 00000KT 11/04 A3028 RMK A01 T01120043  RH  063%=      5-min Rain = 0
KDC1 300051Z 00000KT 11/04 A3028 RMK A01 T01100043  RH  063%=      5-min Rain = 0
KDC1 300052Z 00000KT 11/04 A3028 RMK A01 T01090043  RH  064%=      5-min Rain = 0
KDC1 300053Z 00000KT 11/04 A3028 RMK A01 T01060043  RH  065%=      5-min Rain = 0
KDC1 300054Z 00000KT 11/04 A3028 RMK A01 T01050043  RH  066%=      5-min Rain = 0
KDC1 300055Z 00000KT 10/04 A3028 RMK A01 T01040043  RH  066%=      5-min Rain = 0
KDC1 300056Z 00000KT 10/04 A3028 RMK A01 T01030043  RH  066%=      5-min Rain = 0
KDC1 300057Z 00000KT 10/04 A3029 RMK A01 T01010042  RH  067%=      5-min Rain = 0
KDC1 300058Z 00000KT 10/04 A3029 RMK A01 T01000043  RH  068%=      5-min Rain = 0
KDC1 300059Z 00000KT 10/04 A3029 RMK A01 T00980043  RH  069%=      5-min Rain = 0
KDC1 300100Z 00000KT 10/04 A3029 RMK A01 T00970043  RH  069%=      5-min Rain = 0
KDC1 300101Z 00000KT 10/04 A3029 RMK A01 T00970043  RH  069%=      5-min Rain = 0
KDC1 300102Z 00000KT 10/04 A3029 RMK A01 T00960044  RH  070%=      5-min Rain = 0
KDC1 300103Z 00000KT 10/05 A3029 RMK A01 T00950045  RH  071%=      5-min Rain = 0
KDC1 300104Z 00000KT 10/05 A3029 RMK A01 T00950046  RH  071%=      5-min Rain = 0
KDC1 300105Z 00000KT 09/05 A3029 RMK A01 T00940047  RH  072%=      5-min Rain = 0
KDC1 300106Z 00000KT 09/05 A3029 RMK A01 T00930047  RH  073%=      5-min Rain = 0
KDC1 300107Z 00000KT 09/05 A3029 RMK A01 T00930047  RH  073%=      5-min Rain = 0
KDC1 300108Z 00000KT 09/05 A3029 RMK A01 T00930047  RH  073%=      5-min Rain = 0
KDC1 300109Z 00000KT 09/05 A3029 RMK A01 T00920047  RH  073%=      5-min Rain = 0
KDC1 300110Z 00000KT 09/05 A3029 RMK A01 T00910047  RH  074%=      5-min Rain = 0
KDC1 300111Z 00000KT 09/05 A3029 RMK A01 T00910046  RH  074%=      5-min Rain = 0
KDC1 300112Z 00000KT 09/05 A3029 RMK A01 T00900046  RH  074%=      5-min Rain = 0
KDC1 300113Z 00000KT 09/05 A3029 RMK A01 T00900045  RH  074%=      5-min Rain = 0
KDC1 300114Z 04001KT 09/04 A3029 RMK A01 T00900044  RH  073%=      5-min Rain = 0
KDC1 300115Z 04001KT 09/04 A3029 RMK A01 T00900043  RH  073%=      5-min Rain = 0
KDC1 300116Z 04001KT 09/04 A3029 RMK A01 T00900043  RH  073%=      5-min Rain = 0
KDC1 300117Z 04001KT 09/04 A3029 RMK A01 T00900044  RH  073%=      5-min Rain = 0
KDC1 300118Z 04001KT 09/04 A3029 RMK A01 T00900044  RH  073%=      5-min Rain = 0
KDC1 300119Z 04001KT 09/04 A3029 RMK A01 T00890043  RH  073%=      5-min Rain = 0
KDC1 300120Z 04001KT 09/04 A3029 RMK A01 T00890043  RH  073%=      5-min Rain = 0
KDC1 300121Z 04001KT 09/04 A3029 RMK A01 T00890043  RH  073%=      5-min Rain = 0
KDC1 300122Z 04001KT 09/04 A3029 RMK A01 T00880043  RH  073%=      5-min Rain = 0
KDC1 300123Z 04001KT 09/04 A3029 RMK A01 T00870042  RH  073%=      5-min Rain = 0
KDC1 300124Z 04001KT 09/04 A3029 RMK A01 T00860042  RH  074%=      5-min Rain = 0
KDC1 300125Z 04001KT 09/04 A3029 RMK A01 T00850042  RH  074%=      5-min Rain = 0
KDC1 300126Z 04001KT 08/04 A3029 RMK A01 T00830042  RH  075%=      5-min Rain = 0
KDC1 300127Z 04001KT 08/04 A3029 RMK A01 T00820042  RH  076%=      5-min Rain = 0
KDC1 300128Z 01001KT 08/04 A303 RMK A01 T00820042  RH  076%=      5-min Rain = 0
KDC1 300129Z 01001KT 08/04 A303 RMK A01 T00810041  RH  076%=      5-min Rain = 0
KDC1 300130Z 01001KT 08/04 A303 RMK A01 T00810041  RH  076%=      5-min Rain = 0
KDC1 300131Z 01001KT 08/04 A303 RMK A01 T00810041  RH  076%=      5-min Rain = 0
KDC1 300132Z 01001KT 08/04 A303 RMK A01 T00810040  RH  076%=      5-min Rain = 0
KDC1 300133Z 01002KT 08/04 A303 RMK A01 T00810040  RH  075%=      5-min Rain = 0
KDC1 300134Z 01002KT 08/04 A303 RMK A01 T00810040  RH  075%=      5-min Rain = 0
KDC1 300135Z 01002KT 08/04 A303 RMK A01 T00820040  RH  075%=      5-min Rain = 0
KDC1 300136Z 01002KT 08/04 A303 RMK A01 T00820040  RH  075%=      5-min Rain = 0
KDC1 300137Z 01002KT 08/04 A303 RMK A01 T00820040  RH  075%=      5-min Rain = 0
KDC1 300138Z 01002KT 08/04 A303 RMK A01 T00820040  RH  075%=      5-min Rain = 0
KDC1 300139Z 01002KT 08/04 A303 RMK A01 T00810040  RH  075%=      5-min Rain = 0
KDC1 300140Z 01002KT 08/04 A303 RMK A01 T00820039  RH  075%=      5-min Rain = 0
KDC1 300141Z 00002KT 08/04 A303 RMK A01 T00820039  RH  074%=      5-min Rain = 0
KDC1 300142Z 00002KT 08/04 A303 RMK A01 T00820039  RH  074%=      5-min Rain = 0
KDC1 300143Z 00002KT 08/04 A303 RMK A01 T00820039  RH  074%=      5-min Rain = 0
KDC1 300144Z 00002KT 08/04 A303 RMK A01 T00820038  RH  074%=      5-min Rain = 0
KDC1 300145Z 00002KT 08/04 A303 RMK A01 T00820038  RH  074%=      5-min Rain = 0
KDC1 300146Z 00002KT 08/04 A303 RMK A01 T00810038  RH  074%=      5-min Rain = 0
KDC1 300147Z 00002KT 08/04 A303 RMK A01 T00810038  RH  075%=      5-min Rain = 0
KDC1 300148Z 00002KT 08/04 A303 RMK A01 T00800038  RH  075%=      5-min Rain = 0
KDC1 300149Z 00002KT 08/04 A303 RMK A01 T00800038  RH  075%=      5-min Rain = 0
KDC1 300150Z 00002KT 08/04 A303 RMK A01 T00800037  RH  074%=      5-min Rain = 0
KDC1 300151Z 00002KT 08/04 A303 RMK A01 T00810037  RH  074%=      5-min Rain = 0
KDC1 300152Z 00002KT 08/04 A303 RMK A01 T00810037  RH  074%=      5-min Rain = 0
KDC1 300153Z 00002KT 08/04 A303 RMK A01 T00810037  RH  074%=      5-min Rain = 0
KDC1 300154Z 01002KT 08/04 A303 RMK A01 T00810037  RH  074%=      5-min Rain = 0
KDC1 300155Z 01002KT 08/04 A303 RMK A01 T00810037  RH  073%=      5-min Rain = 0
KDC1 300156Z 01002KT 08/04 A303 RMK A01 T00820037  RH  073%=      5-min Rain = 0
KDC1 300157Z 01001KT 08/04 A303 RMK A01 T00830036  RH  072%=      5-min Rain = 0
KDC1 300158Z 01001KT 09/04 A303 RMK A01 T00850036  RH  071%=      5-min Rain = 0
KDC1 300159Z 01001KT 09/04 A303 RMK A01 T00860035  RH  070%=      5-min Rain = 0
KDC1 300200Z 01001KT 09/04 A303 RMK A01 T00880035  RH  070%=      5-min Rain = 0
KDC1 300201Z 01001KT 09/04 A303 RMK A01 T00880036  RH  070%=      5-min Rain = 0
KDC1 300202Z 01001KT 09/04 A303 RMK A01 T00890035  RH  069%=      5-min Rain = 0
KDC1 300203Z 01001KT 09/04 A303 RMK A01 T00900035  RH  068%=      5-min Rain = 0
KDC1 300204Z 01000KT 09/03 A303 RMK A01 T00910034  RH  067%=      5-min Rain = 0
KDC1 300205Z 00000KT 09/03 A303 RMK A01 T00930033  RH  066%=      5-min Rain = 0
KDC1 300206Z 00000KT 10/03 A303 RMK A01 T00950033  RH  065%=      5-min Rain = 0
KDC1 300207Z 00000KT 10/03 A303 RMK A01 T00970034  RH  065%=      5-min Rain = 0
KDC1 300208Z 25001KT 10/04 A303 RMK A01 T00970035  RH  065%=      5-min Rain = 0
KDC1 300209Z 25000KT 10/04 A303 RMK A01 T00950035  RH  066%=      5-min Rain = 0
KDC1 300210Z 00000KT 09/04 A303 RMK A01 T00940035  RH  067%=      5-min Rain = 0
KDC1 300211Z 00000KT 09/04 A303 RMK A01 T00920035  RH  067%=      5-min Rain = 0
KDC1 300212Z 21000KT 09/04 A303 RMK A01 T00910035  RH  068%=      5-min Rain = 0
KDC1 300213Z 19000KT 09/04 A303 RMK A01 T00890036  RH  069%=      5-min Rain = 0
KDC1 300214Z 00000KT 09/03 A303 RMK A01 T00870034  RH  069%=      5-min Rain = 0
KDC1 300215Z 00000KT 09/03 A303 RMK A01 T00860034  RH  069%=      5-min Rain = 0
KDC1 300216Z 00000KT 09/03 A303 RMK A01 T00850034  RH  071%=      5-min Rain = 0
KDC1 300217Z 00000KT 08/04 A303 RMK A01 T00840035  RH  071%=      5-min Rain = 0
KDC1 300218Z 00000KT 08/04 A303 RMK A01 T00820035  RH  072%=      5-min Rain = 0
KDC1 300219Z 00000KT 08/04 A303 RMK A01 T00810036  RH  073%=      5-min Rain = 0
KDC1 300220Z 00000KT 08/04 A303 RMK A01 T00800036  RH  074%=      5-min Rain = 0
KDC1 300221Z 00000KT 08/04 A303 RMK A01 T00790036  RH  074%=      5-min Rain = 0
KDC1 300222Z 00000KT 08/04 A303 RMK A01 T00790036  RH  074%=      5-min Rain = 0
KDC1 300223Z 00000KT 08/04 A303 RMK A01 T00790036  RH  075%=      5-min Rain = 0
KDC1 300224Z 00000KT 08/04 A303 RMK A01 T00780036  RH  075%=      5-min Rain = 0
KDC1 300225Z 00000KT 08/04 A303 RMK A01 T00780038  RH  075%=      5-min Rain = 0
KDC1 300226Z 00000KT 08/04 A303 RMK A01 T00780038  RH  076%=      5-min Rain = 0
KDC1 300227Z 00000KT 08/04 A303 RMK A01 T00770038  RH  076%=      5-min Rain = 0
KDC1 300228Z 00000KT 08/04 A303 RMK A01 T00770037  RH  076%=      5-min Rain = 0
KDC1 300229Z 00000KT 08/04 A303 RMK A01 T00770038  RH  076%=      5-min Rain = 0
KDC1 300230Z 00000KT 08/04 A303 RMK A01 T00770038  RH  076%=      5-min Rain = 0
KDC1 300231Z 00000KT 08/04 A303 RMK A01 T00770038  RH  077%=      5-min Rain = 0
KDC1 300232Z 00000KT 08/04 A303 RMK A01 T00760038  RH  077%=      5-min Rain = 0
KDC1 300233Z 00000KT 07/04 A303 RMK A01 T00740037  RH  077%=      5-min Rain = 0
KDC1 300234Z 00000KT 07/03 A303 RMK A01 T00710033  RH  077%=      5-min Rain = 0
KDC1 300235Z 21000KT 07/03 A303 RMK A01 T00680031  RH  077%=      5-min Rain = 0
KDC1 300236Z 19001KT 06/03 A303 RMK A01 T00640030  RH  078%=      5-min Rain = 0
KDC1 300237Z 18001KT 06/03 A303 RMK A01 T00630030  RH  080%=      5-min Rain = 0
KDC1 300238Z 19001KT 06/03 A303 RMK A01 T00620031  RH  080%=      5-min Rain = 0
KDC1 300239Z 18001KT 06/03 A303 RMK A01 T00610030  RH  081%=      5-min Rain = 0
KDC1 300240Z 18001KT 06/03 A303 RMK A01 T00610031  RH  081%=      5-min Rain = 0
KDC1 300241Z 18001KT 06/03 A303 RMK A01 T00600030  RH  081%=      5-min Rain = 0
KDC1 300242Z 18000KT 06/03 A303 RMK A01 T00590029  RH  081%=      5-min Rain = 0
KDC1 300243Z 18000KT 06/03 A303 RMK A01 T00580027  RH  081%=      5-min Rain = 0
KDC1 300244Z 22000KT 06/03 A303 RMK A01 T00580027  RH  081%=      5-min Rain = 0
KDC1 300245Z 22001KT 06/03 A303 RMK A01 T00580027  RH  081%=      5-min Rain = 0
KDC1 300246Z 17002KT 06/03 A303 RMK A01 T00580027  RH  081%=      5-min Rain = 0
KDC1 300247Z 17001KT 06/03 A303 RMK A01 T00580027  RH  081%=      5-min Rain = 0
KDC1 300248Z 21001KT 06/03 A303 RMK A01 T00570027  RH  081%=      5-min Rain = 0
KDC1 300249Z 21001KT 06/03 A303 RMK A01 T00580027  RH  080%=      5-min Rain = 0
KDC1 300250Z 21001KT 06/03 A303 RMK A01 T00580027  RH  080%=      5-min Rain = 0
KDC1 300251Z 21001KT 06/03 A303 RMK A01 T00580026  RH  080%=      5-min Rain = 0
KDC1 300252Z 20001KT 06/03 A303 RMK A01 T00590025  RH  079%=      5-min Rain = 0
KDC1 300253Z 20000KT 06/03 A303 RMK A01 T00590025  RH  078%=      5-min Rain = 0
KDC1 300254Z 20000KT 06/03 A303 RMK A01 T00610025  RH  078%=      5-min Rain = 0
KDC1 300255Z 20000KT 06/03 A303 RMK A01 T00630025  RH  076%=      5-min Rain = 0
KDC1 300256Z 20001KT 07/02 A303 RMK A01 T00650024  RH  075%=      5-min Rain = 0
KDC1 300257Z 20001KT 07/02 A303 RMK A01 T00660024  RH  074%=      5-min Rain = 0
KDC1 300258Z 20001KT 07/02 A303 RMK A01 T00660024  RH  074%=      5-min Rain = 0
KDC1 300259Z 20001KT 07/02 A303 RMK A01 T00660024  RH  074%=      5-min Rain = 0
KDC1 300300Z 20001KT 07/02 A303 RMK A01 T00660023  RH  074%=      5-min Rain = 0
KDC1 300301Z 20001KT 07/02 A303 RMK A01 T00660024  RH  074%=      5-min Rain = 0
KDC1 300302Z 20003KT 07/03 A303 RMK A01 T00660026  RH  076%=      5-min Rain = 0
KDC1 300303Z 20002KT 07/03 A303 RMK A01 T00660027  RH  076%=      5-min Rain = 0
KDC1 300304Z 20002KT 07/03 A303 RMK A01 T00670027  RH  076%=      5-min Rain = 0
KDC1 300305Z 20002KT 07/03 A303 RMK A01 T00680028  RH  076%=      5-min Rain = 0
KDC1 300306Z 21002KT 07/03 A303 RMK A01 T00680029  RH  076%=      5-min Rain = 0
KDC1 300307Z 20002KT 07/03 A303 RMK A01 T00710029  RH  075%=      5-min Rain = 0
KDC1 300308Z 20002KT 07/03 A303 RMK A01 T00740028  RH  072%=      5-min Rain = 0
KDC1 300309Z 20002KT 08/03 A303 RMK A01 T00770028  RH  071%=      5-min Rain = 0
KDC1 300310Z 20002KT 08/03 A303 RMK A01 T00780028  RH  071%=      5-min Rain = 0
KDC1 300311Z 20002KT 08/03 A303 RMK A01 T00780028  RH  071%=      5-min Rain = 0
KDC1 300312Z 21001KT 08/03 A303 RMK A01 T00770028  RH  071%=      5-min Rain = 0
KDC1 300313Z 21002KT 08/03 A303 RMK A01 T00760027  RH  071%=      5-min Rain = 0
KDC1 300314Z 20002KT 08/03 A303 RMK A01 T00760027  RH  071%=      5-min Rain = 0
KDC1 300315Z 20003KT 08/03 A303 RMK A01 T00770027  RH  071%=      5-min Rain = 0
KDC1 300316Z 20002KT 08/03 A303 RMK A01 T00760027  RH  071%=      5-min Rain = 0
KDC1 300317Z 20002KT 08/03 A303 RMK A01 T00750027  RH  071%=      5-min Rain = 0
KDC1 300318Z 19002KT 08/03 A303 RMK A01 T00750027  RH  072%=      5-min Rain = 0
KDC1 300319Z 22002KT 07/03 A303 RMK A01 T00730027  RH  072%=      5-min Rain = 0
KDC1 300320Z 22003KT 07/03 A303 RMK A01 T00730027  RH  073%=      5-min Rain = 0
KDC1 300321Z 21003KT 07/03 A303 RMK A01 T00730027  RH  073%=      5-min Rain = 0
KDC1 300322Z 21003KT 07/03 A303 RMK A01 T00730027  RH  072%=      5-min Rain = 0
KDC1 300323Z 21003KT 08/03 A303 RMK A01 T00750026  RH  071%=      5-min Rain = 0
KDC1 300324Z 21003KT 08/03 A303 RMK A01 T00760026  RH  071%=      5-min Rain = 0
KDC1 300325Z 22003KT 08/03 A303 RMK A01 T00770026  RH  070%=      5-min Rain = 0
KDC1 300326Z 21002KT 08/03 A303 RMK A01 T00770026  RH  070%=      5-min Rain = 0
KDC1 300327Z 22002KT 08/03 A303 RMK A01 T00770026  RH  070%=      5-min Rain = 0
KDC1 300328Z 22002KT 08/03 A303 RMK A01 T00780026  RH  070%=      5-min Rain = 0
KDC1 300329Z 22002KT 08/03 A303 RMK A01 T00770027  RH  070%=      5-min Rain = 0
KDC1 300330Z 23002KT 08/03 A303 RMK A01 T00770027  RH  071%=      5-min Rain = 0
KDC1 300331Z 23003KT 08/03 A303 RMK A01 T00760027  RH  071%=      5-min Rain = 0
KDC1 300332Z 23004KT 08/03 A303 RMK A01 T00750027  RH  072%=      5-min Rain = 0
KDC1 300333Z 23004KT 07/03 A303 RMK A01 T00740027  RH  072%=      5-min Rain = 0
KDC1 300334Z 24005KT 07/03 A303 RMK A01 T00740026  RH  071%=      5-min Rain = 0
KDC1 300335Z 24005KT 07/03 A303 RMK A01 T00740026  RH  071%=      5-min Rain = 0
KDC1 300336Z 24004KT 07/03 A303 RMK A01 T00740026  RH  071%=      5-min Rain = 0
KDC1 300337Z 24004KT 07/03 A303 RMK A01 T00730025  RH  071%=      5-min Rain = 0
KDC1 300338Z 24004KT 07/02 A303 RMK A01 T00740024  RH  071%=      5-min Rain = 0
KDC1 300339Z 24004KT 07/02 A303 RMK A01 T00740024  RH  071%=      5-min Rain = 0
KDC1 300340Z 24005KT 07/03 A303 RMK A01 T00730025  RH  071%=      5-min Rain = 0
KDC1 300341Z 24005KT 07/03 A303 RMK A01 T00720025  RH  072%=      5-min Rain = 0
KDC1 300342Z 24005KT 07/02 A303 RMK A01 T00720024  RH  072%=      5-min Rain = 0
KDC1 300343Z 25004KT 07/02 A303 RMK A01 T00710024  RH  072%=      5-min Rain = 0
KDC1 300344Z 25005KT 07/03 A303 RMK A01 T00690025  RH  073%=      5-min Rain = 0
KDC1 300345Z 25005KT 07/02 A303 RMK A01 T00670024  RH  074%=      5-min Rain = 0
KDC1 300346Z 25004KT 07/02 A303 RMK A01 T00660024  RH  074%=      5-min Rain = 0
KDC1 300347Z 25004KT 07/02 A303 RMK A01 T00660024  RH  075%=      5-min Rain = 0
KDC1 300348Z 25004KT 07/02 A303 RMK A01 T00650023  RH  075%=      5-min Rain = 0
KDC1 300349Z 25004KT 06/02 A303 RMK A01 T00620021  RH  075%=      5-min Rain = 0
KDC1 300350Z 25004KT 06/02 A303 RMK A01 T00600020  RH  076%=      5-min Rain = 0
KDC1 300351Z 25004KT 06/02 A303 RMK A01 T00580020  RH  077%=      5-min Rain = 0
KDC1 300352Z 25005KT 06/02 A303 RMK A01 T00570020  RH  077%=      5-min Rain = 0
KDC1 300353Z 25005KT 06/02 A3031 RMK A01 T00560021  RH  078%=      5-min Rain = 0
KDC1 300354Z 24005KT 06/02 A3031 RMK A01 T00550021  RH  078%=      5-min Rain = 0
KDC1 300355Z 25005KT 06/02 A3031 RMK A01 T00560021  RH  078%=      5-min Rain = 0
KDC1 300356Z 25005KT 06/02 A3031 RMK A01 T00560021  RH  078%=      5-min Rain = 0
KDC1 300357Z 25004KT 06/02 A3031 RMK A01 T00560021  RH  078%=      5-min Rain = 0
KDC1 300358Z 25004KT 06/02 A3031 RMK A01 T00550020  RH  078%=      5-min Rain = 0
KDC1 300359Z 25004KT 05/02 A3031 RMK A01 T00540020  RH  079%=      5-min Rain = 0
KDC1 300400Z 26004KT 05/02 A3031 RMK A01 T00540021  RH  079%=      5-min Rain = 0
KDC1 300401Z 26004KT 05/02 A3031 RMK A01 T00530021  RH  080%=      5-min Rain = 0
KDC1 300402Z 26004KT 05/02 A3031 RMK A01 T00520021  RH  080%=      5-min Rain = 0
KDC1 300403Z 26004KT 05/02 A3031 RMK A01 T00510020  RH  080%=      5-min Rain = 0
KDC1 300404Z 26004KT 05/02 A3031 RMK A01 T00500020  RH  081%=      5-min Rain = 0
KDC1 300405Z 26004KT 05/02 A3031 RMK A01 T00500020  RH  081%=      5-min Rain = 0
KDC1 300406Z 26004KT 05/02 A3031 RMK A01 T00480019  RH  081%=      5-min Rain = 0
KDC1 300407Z 26004KT 05/02 A3031 RMK A01 T00470019  RH  082%=      5-min Rain = 0
KDC1 300408Z 25004KT 05/02 A3031 RMK A01 T00470019  RH  082%=      5-min Rain = 0
KDC1 300409Z 25004KT 05/02 A3031 RMK A01 T00460019  RH  082%=      5-min Rain = 0
KDC1 300410Z 25004KT 05/02 A3031 RMK A01 T00460019  RH  083%=      5-min Rain = 0
KDC1 300411Z 25005KT 05/02 A3031 RMK A01 T00460019  RH  083%=      5-min Rain = 0
KDC1 300412Z 25005KT 05/02 A3031 RMK A01 T00460019  RH  083%=      5-min Rain = 0
KDC1 300413Z 25005KT 05/02 A3031 RMK A01 T00460019  RH  082%=      5-min Rain = 0
KDC1 300414Z 25005KT 05/02 A3031 RMK A01 T00460019  RH  082%=      5-min Rain = 0
KDC1 300415Z 25005KT 05/02 A3031 RMK A01 T00460018  RH  082%=      5-min Rain = 0
KDC1 300416Z 25005KT 05/02 A3031 RMK A01 T00460018  RH  082%=      5-min Rain = 0
KDC1 300417Z 24005KT 05/02 A3031 RMK A01 T00450017  RH  082%=      5-min Rain = 0
KDC1 300418Z 25005KT 04/02 A3031 RMK A01 T00440016  RH  082%=      5-min Rain = 0
KDC1 300419Z 25004KT 04/02 A3031 RMK A01 T00440016  RH  082%=      5-min Rain = 0
KDC1 300420Z 25004KT 04/02 A3031 RMK A01 T00430015  RH  082%=      5-min Rain = 0
KDC1 300421Z 25004KT 04/02 A3031 RMK A01 T00430015  RH  082%=      5-min Rain = 0
KDC1 300422Z 25004KT 04/02 A3031 RMK A01 T00420015  RH  083%=      5-min Rain = 0
KDC1 300423Z 25004KT 04/02 A3031 RMK A01 T00420015  RH  083%=      5-min Rain = 0
KDC1 300424Z 25004KT 04/02 A3031 RMK A01 T00410015  RH  083%=      5-min Rain = 0
KDC1 300425Z 25004KT 04/02 A3031 RMK A01 T00410015  RH  083%=      5-min Rain = 0
KDC1 300426Z 25004KT 04/02 A3031 RMK A01 T00420015  RH  083%=      5-min Rain = 0
KDC1 300427Z 25004KT 04/02 A3031 RMK A01 T00410015  RH  083%=      5-min Rain = 0
KDC1 300428Z 25004KT 04/02 A3031 RMK A01 T00410015  RH  083%=      5-min Rain = 0
KDC1 300429Z 25004KT 04/02 A3031 RMK A01 T00410015  RH  083%=      5-min Rain = 0
KDC1 300430Z 25004KT 04/02 A3031 RMK A01 T00410015  RH  083%=      5-min Rain = 0
KDC1 300431Z 25004KT 04/02 A3031 RMK A01 T00420015  RH  083%=      5-min Rain = 0
KDC1 300432Z 26004KT 04/02 A3031 RMK A01 T00420015  RH  082%=      5-min Rain = 0
KDC1 300433Z 26004KT 04/02 A3031 RMK A01 T00420015  RH  082%=      5-min Rain = 0
KDC1 300434Z 26004KT 04/01 A3031 RMK A01 T00420014  RH  082%=      5-min Rain = 0
KDC1 300435Z 26005KT 04/01 A3031 RMK A01 T00410014  RH  082%=      5-min Rain = 0
KDC1 300436Z 26005KT 04/01 A3031 RMK A01 T00410013  RH  082%=      5-min Rain = 0
KDC1 300437Z 27005KT 04/01 A3032 RMK A01 T00410014  RH  083%=      5-min Rain = 0
KDC1 300438Z 27005KT 04/01 A3032 RMK A01 T00410014  RH  083%=      5-min Rain = 0
KDC1 300439Z 27005KT 04/01 A3032 RMK A01 T00410013  RH  083%=      5-min Rain = 0
KDC1 300440Z 27005KT 04/01 A3032 RMK A01 T00410014  RH  082%=      5-min Rain = 0
KDC1 300441Z 27006KT 04/01 A3032 RMK A01 T00410013  RH  082%=      5-min Rain = 0
KDC1 300442Z 28006KT 04/01 A3032 RMK A01 T00410013  RH  082%=      5-min Rain = 0
KDC1 300443Z 28005KT 04/01 A3032 RMK A01 T00410013  RH  082%=      5-min Rain = 0
KDC1 300444Z 28006KT 04/01 A3032 RMK A01 T00410013  RH  082%=      5-min Rain = 0
KDC1 300445Z 28006KT 04/01 A3032 RMK A01 T00410013  RH  082%=      5-min Rain = 0
KDC1 300446Z 28006KT 04/01 A3032 RMK A01 T00400013  RH  083%=      5-min Rain = 0
KDC1 300447Z 28006KT 04/01 A3032 RMK A01 T00400013  RH  083%=      5-min Rain = 0
KDC1 300448Z 28006KT 04/01 A3032 RMK A01 T00400014  RH  083%=      5-min Rain = 0
KDC1 300449Z 28006KT 04/01 A3032 RMK A01 T00400014  RH  083%=      5-min Rain = 0
KDC1 300450Z 28006KT 04/01 A3032 RMK A01 T00410014  RH  083%=      5-min Rain = 0
KDC1 300451Z 28006KT 04/01 A3032 RMK A01 T00410014  RH  083%=      5-min Rain = 0
KDC1 300452Z 28006KT 04/01 A3032 RMK A01 T00410014  RH  083%=      5-min Rain = 0
KDC1 300453Z 28006KT 04/01 A3032 RMK A01 T00410014  RH  083%=      5-min Rain = 0
KDC1 300454Z 28006KT 04/01 A3032 RMK A01 T00410014  RH  083%=      5-min Rain = 0
KDC1 300455Z 28006KT 04/01 A3032 RMK A01 T00410014  RH  083%=      5-min Rain = 0
KDC1 300456Z 28006KT 04/01 A3032 RMK A01 T00410014  RH  083%=      5-min Rain = 0
KDC1 300457Z 28006KT 04/01 A3032 RMK A01 T00410014  RH  083%=      5-min Rain = 0
KDC1 300458Z 28006KT 04/02 A3032 RMK A01 T00420015  RH  082%=      5-min Rain = 0
KDC1 300459Z 28006KT 04/01 A3032 RMK A01 T00420014  RH  082%=      5-min Rain = 0

Page generated in 0.1964 seconds.